<?xml version="1.0" encoding="UTF-8" standalone="no" ?>
<gpx xmlns="http://www.topografix.com/GPX/1/1" xmlns:xsi="http://www.w3.org/2001/XMLSchema-instance" xsi:schemaLocation="http://www.topografix.com/GPX/1/1 http://www.topografix.com/GPX/1/1/gpx.xsd" version="1.1" creator="VisuGPX - https://www.visugpx.com">
  <metadata>
    <name>64 - VTT - Artiguelouve Randonnée sportive</name>
    <desc><![CDATA[Soleil, roulant]]></desc>
  </metadata>
  <trk>
    <name><![CDATA[ACTIVE LOG]]></name>
    <trkseg>
      <trkpt lat="43.32706" lon="-0.47587">
        <ele>144.815796</ele>
        <time>2012-03-25T06:34:45Z</time>
      </trkpt>
      <trkpt lat="43.32706" lon="-0.47587">
        <ele>144.815796</ele>
        <time>2012-03-25T06:34:47Z</time>
      </trkpt>
      <trkpt lat="43.32706" lon="-0.47587">
        <ele>144.335205</ele>
        <time>2012-03-25T06:34:48Z</time>
      </trkpt>
      <trkpt lat="43.32707" lon="-0.47586">
        <ele>142.893066</ele>
        <time>2012-03-25T06:35:28Z</time>
      </trkpt>
      <trkpt lat="43.32707" lon="-0.47586">
        <ele>143.85437</ele>
        <time>2012-03-25T06:35:33Z</time>
      </trkpt>
      <trkpt lat="43.32705" lon="-0.47614">
        <ele>143.373657</ele>
        <time>2012-03-25T06:35:52Z</time>
      </trkpt>
      <trkpt lat="43.32699" lon="-0.47648">
        <ele>143.373657</ele>
        <time>2012-03-25T06:36:08Z</time>
      </trkpt>
      <trkpt lat="43.32695" lon="-0.47664">
        <ele>142.893066</ele>
        <time>2012-03-25T06:36:19Z</time>
      </trkpt>
      <trkpt lat="43.32695" lon="-0.47664">
        <ele>143.85437</ele>
        <time>2012-03-25T06:36:32Z</time>
      </trkpt>
      <trkpt lat="43.32694" lon="-0.47702">
        <ele>144.335205</ele>
        <time>2012-03-25T06:36:43Z</time>
      </trkpt>
      <trkpt lat="43.32676" lon="-0.47745">
        <ele>144.815796</ele>
        <time>2012-03-25T06:36:54Z</time>
      </trkpt>
      <trkpt lat="43.32611" lon="-0.478">
        <ele>144.335205</ele>
        <time>2012-03-25T06:37:12Z</time>
      </trkpt>
      <trkpt lat="43.32608" lon="-0.47803">
        <ele>144.335205</ele>
        <time>2012-03-25T06:37:13Z</time>
      </trkpt>
      <trkpt lat="43.32611" lon="-0.47831">
        <ele>144.815796</ele>
        <time>2012-03-25T06:37:19Z</time>
      </trkpt>
      <trkpt lat="43.32662" lon="-0.47905">
        <ele>143.85437</ele>
        <time>2012-03-25T06:37:37Z</time>
      </trkpt>
      <trkpt lat="43.32679" lon="-0.47913">
        <ele>143.373657</ele>
        <time>2012-03-25T06:37:41Z</time>
      </trkpt>
      <trkpt lat="43.32712" lon="-0.47936">
        <ele>142.412476</ele>
        <time>2012-03-25T06:37:54Z</time>
      </trkpt>
      <trkpt lat="43.32728" lon="-0.47956">
        <ele>142.893066</ele>
        <time>2012-03-25T06:38:07Z</time>
      </trkpt>
      <trkpt lat="43.32755" lon="-0.47992">
        <ele>142.412476</ele>
        <time>2012-03-25T06:38:22Z</time>
      </trkpt>
      <trkpt lat="43.32774" lon="-0.48025">
        <ele>142.893066</ele>
        <time>2012-03-25T06:38:37Z</time>
      </trkpt>
      <trkpt lat="43.32789" lon="-0.48093">
        <ele>142.412476</ele>
        <time>2012-03-25T06:38:53Z</time>
      </trkpt>
      <trkpt lat="43.32824" lon="-0.48176">
        <ele>142.893066</ele>
        <time>2012-03-25T06:39:12Z</time>
      </trkpt>
      <trkpt lat="43.32842" lon="-0.48273">
        <ele>142.412476</ele>
        <time>2012-03-25T06:39:30Z</time>
      </trkpt>
      <trkpt lat="43.3286" lon="-0.48387">
        <ele>141.45105</ele>
        <time>2012-03-25T06:39:51Z</time>
      </trkpt>
      <trkpt lat="43.32849" lon="-0.48396">
        <ele>141.45105</ele>
        <time>2012-03-25T06:39:56Z</time>
      </trkpt>
      <trkpt lat="43.3284" lon="-0.48395">
        <ele>141.931763</ele>
        <time>2012-03-25T06:39:58Z</time>
      </trkpt>
      <trkpt lat="43.32819" lon="-0.48402">
        <ele>141.45105</ele>
        <time>2012-03-25T06:40:03Z</time>
      </trkpt>
      <trkpt lat="43.32791" lon="-0.4844">
        <ele>140.970459</ele>
        <time>2012-03-25T06:40:15Z</time>
      </trkpt>
      <trkpt lat="43.32793" lon="-0.48449">
        <ele>140.489868</ele>
        <time>2012-03-25T06:40:27Z</time>
      </trkpt>
      <trkpt lat="43.32797" lon="-0.48463">
        <ele>140.009155</ele>
        <time>2012-03-25T06:40:36Z</time>
      </trkpt>
      <trkpt lat="43.32794" lon="-0.4847">
        <ele>140.489868</ele>
        <time>2012-03-25T06:40:43Z</time>
      </trkpt>
      <trkpt lat="43.32784" lon="-0.48477">
        <ele>140.970459</ele>
        <time>2012-03-25T06:40:57Z</time>
      </trkpt>
      <trkpt lat="43.32784" lon="-0.48477">
        <ele>140.970459</ele>
        <time>2012-03-25T06:41:05Z</time>
      </trkpt>
      <trkpt lat="43.32763" lon="-0.48482">
        <ele>141.45105</ele>
        <time>2012-03-25T06:41:21Z</time>
      </trkpt>
      <trkpt lat="43.32743" lon="-0.48492">
        <ele>141.45105</ele>
        <time>2012-03-25T06:41:28Z</time>
      </trkpt>
      <trkpt lat="43.32734" lon="-0.4848">
        <ele>141.45105</ele>
        <time>2012-03-25T06:41:38Z</time>
      </trkpt>
      <trkpt lat="43.32732" lon="-0.48479">
        <ele>141.45105</ele>
        <time>2012-03-25T06:41:39Z</time>
      </trkpt>
      <trkpt lat="43.32687" lon="-0.48464">
        <ele>141.931763</ele>
        <time>2012-03-25T06:41:53Z</time>
      </trkpt>
      <trkpt lat="43.32641" lon="-0.48451">
        <ele>142.412476</ele>
        <time>2012-03-25T06:42:06Z</time>
      </trkpt>
      <trkpt lat="43.32591" lon="-0.48394">
        <ele>143.373657</ele>
        <time>2012-03-25T06:42:23Z</time>
      </trkpt>
      <trkpt lat="43.3256" lon="-0.48314">
        <ele>143.85437</ele>
        <time>2012-03-25T06:42:39Z</time>
      </trkpt>
      <trkpt lat="43.32528" lon="-0.48294">
        <ele>143.85437</ele>
        <time>2012-03-25T06:42:48Z</time>
      </trkpt>
      <trkpt lat="43.32524" lon="-0.48296">
        <ele>144.335205</ele>
        <time>2012-03-25T06:42:49Z</time>
      </trkpt>
      <trkpt lat="43.32487" lon="-0.48317">
        <ele>144.815796</ele>
        <time>2012-03-25T06:43:00Z</time>
      </trkpt>
      <trkpt lat="43.32417" lon="-0.48351">
        <ele>145.296387</ele>
        <time>2012-03-25T06:43:15Z</time>
      </trkpt>
      <trkpt lat="43.32406" lon="-0.48358">
        <ele>145.7771</ele>
        <time>2012-03-25T06:43:18Z</time>
      </trkpt>
      <trkpt lat="43.32403" lon="-0.48374">
        <ele>145.7771</ele>
        <time>2012-03-25T06:43:22Z</time>
      </trkpt>
      <trkpt lat="43.32409" lon="-0.484">
        <ele>145.7771</ele>
        <time>2012-03-25T06:43:27Z</time>
      </trkpt>
      <trkpt lat="43.32403" lon="-0.48425">
        <ele>146.738403</ele>
        <time>2012-03-25T06:43:32Z</time>
      </trkpt>
      <trkpt lat="43.32356" lon="-0.48459">
        <ele>146.738403</ele>
        <time>2012-03-25T06:43:46Z</time>
      </trkpt>
      <trkpt lat="43.3229" lon="-0.48451">
        <ele>146.738403</ele>
        <time>2012-03-25T06:44:01Z</time>
      </trkpt>
      <trkpt lat="43.32273" lon="-0.48439">
        <ele>147.218994</ele>
        <time>2012-03-25T06:44:05Z</time>
      </trkpt>
      <trkpt lat="43.32261" lon="-0.48426">
        <ele>148.18042</ele>
        <time>2012-03-25T06:44:08Z</time>
      </trkpt>
      <trkpt lat="43.32236" lon="-0.48407">
        <ele>147.699707</ele>
        <time>2012-03-25T06:44:14Z</time>
      </trkpt>
      <trkpt lat="43.32149" lon="-0.48379">
        <ele>147.699707</ele>
        <time>2012-03-25T06:44:32Z</time>
      </trkpt>
      <trkpt lat="43.32114" lon="-0.48366">
        <ele>148.661011</ele>
        <time>2012-03-25T06:44:39Z</time>
      </trkpt>
      <trkpt lat="43.32077" lon="-0.4839">
        <ele>149.141602</ele>
        <time>2012-03-25T06:44:48Z</time>
      </trkpt>
      <trkpt lat="43.32026" lon="-0.48501">
        <ele>151.064209</ele>
        <time>2012-03-25T06:45:08Z</time>
      </trkpt>
      <trkpt lat="43.31981" lon="-0.48596">
        <ele>153.467651</ele>
        <time>2012-03-25T06:45:29Z</time>
      </trkpt>
      <trkpt lat="43.3196" lon="-0.48642">
        <ele>156.832153</ele>
        <time>2012-03-25T06:45:39Z</time>
      </trkpt>
      <trkpt lat="43.31928" lon="-0.48685">
        <ele>158.754761</ele>
        <time>2012-03-25T06:45:51Z</time>
      </trkpt>
      <trkpt lat="43.31896" lon="-0.48718">
        <ele>161.158203</ele>
        <time>2012-03-25T06:46:06Z</time>
      </trkpt>
      <trkpt lat="43.31877" lon="-0.48739">
        <ele>161.158203</ele>
        <time>2012-03-25T06:46:16Z</time>
      </trkpt>
      <trkpt lat="43.31851" lon="-0.48771">
        <ele>162.600098</ele>
        <time>2012-03-25T06:46:29Z</time>
      </trkpt>
      <trkpt lat="43.31822" lon="-0.48794">
        <ele>165.484131</ele>
        <time>2012-03-25T06:46:42Z</time>
      </trkpt>
      <trkpt lat="43.31798" lon="-0.48816">
        <ele>167.406738</ele>
        <time>2012-03-25T06:46:54Z</time>
      </trkpt>
      <trkpt lat="43.31774" lon="-0.4884">
        <ele>169.329468</ele>
        <time>2012-03-25T06:47:07Z</time>
      </trkpt>
      <trkpt lat="43.31757" lon="-0.48828">
        <ele>172.69397</ele>
        <time>2012-03-25T06:47:16Z</time>
      </trkpt>
      <trkpt lat="43.31765" lon="-0.4881">
        <ele>173.655273</ele>
        <time>2012-03-25T06:47:24Z</time>
      </trkpt>
      <trkpt lat="43.31778" lon="-0.4878">
        <ele>175.577881</ele>
        <time>2012-03-25T06:47:40Z</time>
      </trkpt>
      <trkpt lat="43.31794" lon="-0.48757">
        <ele>178.942627</ele>
        <time>2012-03-25T06:47:55Z</time>
      </trkpt>
      <trkpt lat="43.31797" lon="-0.48747">
        <ele>180.384521</ele>
        <time>2012-03-25T06:48:06Z</time>
      </trkpt>
      <trkpt lat="43.31795" lon="-0.48748">
        <ele>179.423218</ele>
        <time>2012-03-25T06:48:11Z</time>
      </trkpt>
      <trkpt lat="43.31792" lon="-0.48752">
        <ele>182.307129</ele>
        <time>2012-03-25T06:48:15Z</time>
      </trkpt>
      <trkpt lat="43.31784" lon="-0.48758">
        <ele>183.268433</ele>
        <time>2012-03-25T06:48:24Z</time>
      </trkpt>
      <trkpt lat="43.31771" lon="-0.48769">
        <ele>184.710571</ele>
        <time>2012-03-25T06:48:38Z</time>
      </trkpt>
      <trkpt lat="43.31748" lon="-0.4877">
        <ele>187.59436</ele>
        <time>2012-03-25T06:48:54Z</time>
      </trkpt>
      <trkpt lat="43.31745" lon="-0.48771">
        <ele>187.59436</ele>
        <time>2012-03-25T06:48:56Z</time>
      </trkpt>
      <trkpt lat="43.31726" lon="-0.4879">
        <ele>191.439575</ele>
        <time>2012-03-25T06:49:12Z</time>
      </trkpt>
      <trkpt lat="43.3171" lon="-0.48798">
        <ele>193.843018</ele>
        <time>2012-03-25T06:49:25Z</time>
      </trkpt>
      <trkpt lat="43.31686" lon="-0.48798">
        <ele>196.726929</ele>
        <time>2012-03-25T06:49:41Z</time>
      </trkpt>
      <trkpt lat="43.31662" lon="-0.48786">
        <ele>199.61084</ele>
        <time>2012-03-25T06:49:56Z</time>
      </trkpt>
      <trkpt lat="43.31637" lon="-0.48776">
        <ele>202.494873</ele>
        <time>2012-03-25T06:50:14Z</time>
      </trkpt>
      <trkpt lat="43.31619" lon="-0.4877">
        <ele>204.898071</ele>
        <time>2012-03-25T06:50:26Z</time>
      </trkpt>
      <trkpt lat="43.31597" lon="-0.4876">
        <ele>207.782104</ele>
        <time>2012-03-25T06:50:41Z</time>
      </trkpt>
      <trkpt lat="43.31567" lon="-0.48757">
        <ele>211.627441</ele>
        <time>2012-03-25T06:51:00Z</time>
      </trkpt>
      <trkpt lat="43.31542" lon="-0.48756">
        <ele>213.069336</ele>
        <time>2012-03-25T06:51:16Z</time>
      </trkpt>
      <trkpt lat="43.31511" lon="-0.48752">
        <ele>215.472656</ele>
        <time>2012-03-25T06:51:33Z</time>
      </trkpt>
      <trkpt lat="43.31488" lon="-0.48748">
        <ele>218.356567</ele>
        <time>2012-03-25T06:51:47Z</time>
      </trkpt>
      <trkpt lat="43.3147" lon="-0.48753">
        <ele>221.721191</ele>
        <time>2012-03-25T06:51:59Z</time>
      </trkpt>
      <trkpt lat="43.31465" lon="-0.48758">
        <ele>223.163208</ele>
        <time>2012-03-25T06:52:04Z</time>
      </trkpt>
      <trkpt lat="43.31446" lon="-0.48781">
        <ele>224.605225</ele>
        <time>2012-03-25T06:52:22Z</time>
      </trkpt>
      <trkpt lat="43.31423" lon="-0.48802">
        <ele>227.969727</ele>
        <time>2012-03-25T06:52:41Z</time>
      </trkpt>
      <trkpt lat="43.3141" lon="-0.48812">
        <ele>231.334351</ele>
        <time>2012-03-25T06:52:52Z</time>
      </trkpt>
      <trkpt lat="43.31383" lon="-0.48829">
        <ele>234.218384</ele>
        <time>2012-03-25T06:53:13Z</time>
      </trkpt>
      <trkpt lat="43.31357" lon="-0.48835">
        <ele>237.582886</ele>
        <time>2012-03-25T06:53:32Z</time>
      </trkpt>
      <trkpt lat="43.31338" lon="-0.48831">
        <ele>241.428223</ele>
        <time>2012-03-25T06:53:45Z</time>
      </trkpt>
      <trkpt lat="43.31331" lon="-0.48828">
        <ele>242.389648</ele>
        <time>2012-03-25T06:53:50Z</time>
      </trkpt>
      <trkpt lat="43.31317" lon="-0.48811">
        <ele>243.831543</ele>
        <time>2012-03-25T06:54:03Z</time>
      </trkpt>
      <trkpt lat="43.31302" lon="-0.48787">
        <ele>247.196045</ele>
        <time>2012-03-25T06:54:18Z</time>
      </trkpt>
      <trkpt lat="43.31284" lon="-0.48776">
        <ele>250.560791</ele>
        <time>2012-03-25T06:54:31Z</time>
      </trkpt>
      <trkpt lat="43.31266" lon="-0.4879">
        <ele>252.963989</ele>
        <time>2012-03-25T06:54:45Z</time>
      </trkpt>
      <trkpt lat="43.31245" lon="-0.48801">
        <ele>253.925415</ele>
        <time>2012-03-25T06:54:59Z</time>
      </trkpt>
      <trkpt lat="43.31214" lon="-0.48795">
        <ele>255.848022</ele>
        <time>2012-03-25T06:55:15Z</time>
      </trkpt>
      <trkpt lat="43.3117" lon="-0.48795">
        <ele>259.212646</ele>
        <time>2012-03-25T06:55:35Z</time>
      </trkpt>
      <trkpt lat="43.31141" lon="-0.48803">
        <ele>262.577148</ele>
        <time>2012-03-25T06:55:51Z</time>
      </trkpt>
      <trkpt lat="43.31138" lon="-0.48804">
        <ele>264.019287</ele>
        <time>2012-03-25T06:55:53Z</time>
      </trkpt>
      <trkpt lat="43.31125" lon="-0.48806">
        <ele>265.461304</ele>
        <time>2012-03-25T06:56:00Z</time>
      </trkpt>
      <trkpt lat="43.311" lon="-0.48782">
        <ele>268.825806</ele>
        <time>2012-03-25T06:56:17Z</time>
      </trkpt>
      <trkpt lat="43.31078" lon="-0.48736">
        <ele>269.306519</ele>
        <time>2012-03-25T06:56:35Z</time>
      </trkpt>
      <trkpt lat="43.31065" lon="-0.48706">
        <ele>267.383911</ele>
        <time>2012-03-25T06:56:42Z</time>
      </trkpt>
      <trkpt lat="43.3105" lon="-0.48714">
        <ele>265.941895</ele>
        <time>2012-03-25T06:56:47Z</time>
      </trkpt>
      <trkpt lat="43.31021" lon="-0.48754">
        <ele>265.941895</ele>
        <time>2012-03-25T06:56:56Z</time>
      </trkpt>
      <trkpt lat="43.30978" lon="-0.48799">
        <ele>268.345093</ele>
        <time>2012-03-25T06:57:12Z</time>
      </trkpt>
      <trkpt lat="43.30961" lon="-0.48822">
        <ele>271.709717</ele>
        <time>2012-03-25T06:57:23Z</time>
      </trkpt>
      <trkpt lat="43.30958" lon="-0.48827">
        <ele>272.671143</ele>
        <time>2012-03-25T06:57:25Z</time>
      </trkpt>
      <trkpt lat="43.30941" lon="-0.48844">
        <ele>276.035645</ele>
        <time>2012-03-25T06:57:36Z</time>
      </trkpt>
      <trkpt lat="43.30913" lon="-0.48871">
        <ele>277.958252</ele>
        <time>2012-03-25T06:57:53Z</time>
      </trkpt>
      <trkpt lat="43.30877" lon="-0.48895">
        <ele>281.322998</ele>
        <time>2012-03-25T06:58:09Z</time>
      </trkpt>
      <trkpt lat="43.30835" lon="-0.48904">
        <ele>283.245605</ele>
        <time>2012-03-25T06:58:27Z</time>
      </trkpt>
      <trkpt lat="43.30791" lon="-0.48896">
        <ele>280.842407</ele>
        <time>2012-03-25T06:58:42Z</time>
      </trkpt>
      <trkpt lat="43.30714" lon="-0.48881">
        <ele>278.919678</ele>
        <time>2012-03-25T06:58:54Z</time>
      </trkpt>
      <trkpt lat="43.30648" lon="-0.48886">
        <ele>279.880859</ele>
        <time>2012-03-25T06:59:08Z</time>
      </trkpt>
      <trkpt lat="43.30614" lon="-0.48887">
        <ele>281.803589</ele>
        <time>2012-03-25T06:59:16Z</time>
      </trkpt>
      <trkpt lat="43.30569" lon="-0.48886">
        <ele>284.687622</ele>
        <time>2012-03-25T06:59:28Z</time>
      </trkpt>
      <trkpt lat="43.30509" lon="-0.48892">
        <ele>284.206909</ele>
        <time>2012-03-25T06:59:43Z</time>
      </trkpt>
      <trkpt lat="43.30421" lon="-0.48898">
        <ele>282.284302</ele>
        <time>2012-03-25T06:59:57Z</time>
      </trkpt>
      <trkpt lat="43.30379" lon="-0.489">
        <ele>285.648804</ele>
        <time>2012-03-25T07:00:05Z</time>
      </trkpt>
      <trkpt lat="43.30374" lon="-0.48901">
        <ele>285.168213</ele>
        <time>2012-03-25T07:00:06Z</time>
      </trkpt>
      <trkpt lat="43.30363" lon="-0.489">
        <ele>287.09082</ele>
        <time>2012-03-25T07:00:09Z</time>
      </trkpt>
      <trkpt lat="43.30359" lon="-0.48901">
        <ele>287.09082</ele>
        <time>2012-03-25T07:00:10Z</time>
      </trkpt>
      <trkpt lat="43.30355" lon="-0.48915">
        <ele>287.571411</ele>
        <time>2012-03-25T07:00:14Z</time>
      </trkpt>
      <trkpt lat="43.30346" lon="-0.4897">
        <ele>284.687622</ele>
        <time>2012-03-25T07:00:23Z</time>
      </trkpt>
      <trkpt lat="43.30342" lon="-0.48993">
        <ele>282.765015</ele>
        <time>2012-03-25T07:00:26Z</time>
      </trkpt>
      <trkpt lat="43.30344" lon="-0.49025">
        <ele>277.958252</ele>
        <time>2012-03-25T07:00:30Z</time>
      </trkpt>
      <trkpt lat="43.30348" lon="-0.49056">
        <ele>274.113037</ele>
        <time>2012-03-25T07:00:33Z</time>
      </trkpt>
      <trkpt lat="43.30351" lon="-0.49075">
        <ele>270.748413</ele>
        <time>2012-03-25T07:00:35Z</time>
      </trkpt>
      <trkpt lat="43.30354" lon="-0.49099">
        <ele>266.903198</ele>
        <time>2012-03-25T07:00:38Z</time>
      </trkpt>
      <trkpt lat="43.30354" lon="-0.49114">
        <ele>264.019287</ele>
        <time>2012-03-25T07:00:41Z</time>
      </trkpt>
      <trkpt lat="43.30326" lon="-0.49122">
        <ele>263.057861</ele>
        <time>2012-03-25T07:00:49Z</time>
      </trkpt>
      <trkpt lat="43.30275" lon="-0.49114">
        <ele>262.577148</ele>
        <time>2012-03-25T07:01:03Z</time>
      </trkpt>
      <trkpt lat="43.30273" lon="-0.49108">
        <ele>262.577148</ele>
        <time>2012-03-25T07:01:14Z</time>
      </trkpt>
      <trkpt lat="43.30273" lon="-0.49108">
        <ele>263.057861</ele>
        <time>2012-03-25T07:01:35Z</time>
      </trkpt>
      <trkpt lat="43.30273" lon="-0.49108">
        <ele>262.577148</ele>
        <time>2012-03-25T07:01:46Z</time>
      </trkpt>
      <trkpt lat="43.30256" lon="-0.49086">
        <ele>264.980591</ele>
        <time>2012-03-25T07:01:59Z</time>
      </trkpt>
      <trkpt lat="43.30244" lon="-0.49065">
        <ele>268.345093</ele>
        <time>2012-03-25T07:02:08Z</time>
      </trkpt>
      <trkpt lat="43.30232" lon="-0.49036">
        <ele>271.229126</ele>
        <time>2012-03-25T07:02:23Z</time>
      </trkpt>
      <trkpt lat="43.30226" lon="-0.49021">
        <ele>273.151855</ele>
        <time>2012-03-25T07:02:31Z</time>
      </trkpt>
      <trkpt lat="43.30215" lon="-0.48972">
        <ele>276.035645</ele>
        <time>2012-03-25T07:02:53Z</time>
      </trkpt>
      <trkpt lat="43.30205" lon="-0.48925">
        <ele>278.438965</ele>
        <time>2012-03-25T07:03:12Z</time>
      </trkpt>
      <trkpt lat="43.30176" lon="-0.48865">
        <ele>279.400269</ele>
        <time>2012-03-25T07:03:30Z</time>
      </trkpt>
      <trkpt lat="43.30168" lon="-0.48848">
        <ele>280.842407</ele>
        <time>2012-03-25T07:03:35Z</time>
      </trkpt>
      <trkpt lat="43.30146" lon="-0.48801">
        <ele>283.726196</ele>
        <time>2012-03-25T07:03:51Z</time>
      </trkpt>
      <trkpt lat="43.30145" lon="-0.48799">
        <ele>283.726196</ele>
        <time>2012-03-25T07:03:52Z</time>
      </trkpt>
      <trkpt lat="43.30143" lon="-0.48784">
        <ele>285.168213</ele>
        <time>2012-03-25T07:03:59Z</time>
      </trkpt>
      <trkpt lat="43.30137" lon="-0.48778">
        <ele>285.648804</ele>
        <time>2012-03-25T07:04:03Z</time>
      </trkpt>
      <trkpt lat="43.30085" lon="-0.48753">
        <ele>285.648804</ele>
        <time>2012-03-25T07:04:21Z</time>
      </trkpt>
      <trkpt lat="43.30033" lon="-0.48768">
        <ele>282.284302</ele>
        <time>2012-03-25T07:04:32Z</time>
      </trkpt>
      <trkpt lat="43.29966" lon="-0.48827">
        <ele>280.842407</ele>
        <time>2012-03-25T07:04:46Z</time>
      </trkpt>
      <trkpt lat="43.29951" lon="-0.48855">
        <ele>280.842407</ele>
        <time>2012-03-25T07:04:51Z</time>
      </trkpt>
      <trkpt lat="43.29923" lon="-0.48861">
        <ele>284.206909</ele>
        <time>2012-03-25T07:04:59Z</time>
      </trkpt>
      <trkpt lat="43.2992" lon="-0.48858">
        <ele>283.245605</ele>
        <time>2012-03-25T07:05:00Z</time>
      </trkpt>
      <trkpt lat="43.29905" lon="-0.4884">
        <ele>284.206909</ele>
        <time>2012-03-25T07:05:05Z</time>
      </trkpt>
      <trkpt lat="43.29839" lon="-0.48799">
        <ele>283.245605</ele>
        <time>2012-03-25T07:05:21Z</time>
      </trkpt>
      <trkpt lat="43.2982" lon="-0.48784">
        <ele>282.284302</ele>
        <time>2012-03-25T07:05:25Z</time>
      </trkpt>
      <trkpt lat="43.29799" lon="-0.48736">
        <ele>280.361694</ele>
        <time>2012-03-25T07:05:31Z</time>
      </trkpt>
      <trkpt lat="43.29792" lon="-0.48687">
        <ele>280.361694</ele>
        <time>2012-03-25T07:05:37Z</time>
      </trkpt>
      <trkpt lat="43.29779" lon="-0.48655">
        <ele>281.803589</ele>
        <time>2012-03-25T07:05:42Z</time>
      </trkpt>
      <trkpt lat="43.29772" lon="-0.48645">
        <ele>281.803589</ele>
        <time>2012-03-25T07:05:44Z</time>
      </trkpt>
      <trkpt lat="43.29747" lon="-0.48622">
        <ele>282.284302</ele>
        <time>2012-03-25T07:05:50Z</time>
      </trkpt>
      <trkpt lat="43.2972" lon="-0.48582">
        <ele>282.284302</ele>
        <time>2012-03-25T07:05:58Z</time>
      </trkpt>
      <trkpt lat="43.2971" lon="-0.4857">
        <ele>282.284302</ele>
        <time>2012-03-25T07:06:01Z</time>
      </trkpt>
      <trkpt lat="43.29641" lon="-0.48539">
        <ele>282.284302</ele>
        <time>2012-03-25T07:06:14Z</time>
      </trkpt>
      <trkpt lat="43.29559" lon="-0.48504">
        <ele>282.765015</ele>
        <time>2012-03-25T07:06:31Z</time>
      </trkpt>
      <trkpt lat="43.29441" lon="-0.48439">
        <ele>284.206909</ele>
        <time>2012-03-25T07:06:52Z</time>
      </trkpt>
      <trkpt lat="43.29427" lon="-0.48428">
        <ele>285.168213</ele>
        <time>2012-03-25T07:06:55Z</time>
      </trkpt>
      <trkpt lat="43.29338" lon="-0.48392">
        <ele>284.206909</ele>
        <time>2012-03-25T07:07:13Z</time>
      </trkpt>
      <trkpt lat="43.29307" lon="-0.48381">
        <ele>283.726196</ele>
        <time>2012-03-25T07:07:18Z</time>
      </trkpt>
      <trkpt lat="43.29268" lon="-0.48332">
        <ele>283.245605</ele>
        <time>2012-03-25T07:07:28Z</time>
      </trkpt>
      <trkpt lat="43.29224" lon="-0.48294">
        <ele>285.648804</ele>
        <time>2012-03-25T07:07:44Z</time>
      </trkpt>
      <trkpt lat="43.29183" lon="-0.4828">
        <ele>284.687622</ele>
        <time>2012-03-25T07:08:00Z</time>
      </trkpt>
      <trkpt lat="43.29164" lon="-0.48276">
        <ele>285.168213</ele>
        <time>2012-03-25T07:08:14Z</time>
      </trkpt>
      <trkpt lat="43.29146" lon="-0.48267">
        <ele>286.129517</ele>
        <time>2012-03-25T07:08:25Z</time>
      </trkpt>
      <trkpt lat="43.29125" lon="-0.48237">
        <ele>286.129517</ele>
        <time>2012-03-25T07:08:39Z</time>
      </trkpt>
      <trkpt lat="43.29114" lon="-0.48238">
        <ele>287.571411</ele>
        <time>2012-03-25T07:08:45Z</time>
      </trkpt>
      <trkpt lat="43.29113" lon="-0.4825">
        <ele>288.532959</ele>
        <time>2012-03-25T07:08:50Z</time>
      </trkpt>
      <trkpt lat="43.29106" lon="-0.48255">
        <ele>289.01355</ele>
        <time>2012-03-25T07:08:54Z</time>
      </trkpt>
      <trkpt lat="43.29095" lon="-0.48254">
        <ele>287.571411</ele>
        <time>2012-03-25T07:08:59Z</time>
      </trkpt>
      <trkpt lat="43.2904" lon="-0.48255">
        <ele>284.687622</ele>
        <time>2012-03-25T07:09:11Z</time>
      </trkpt>
      <trkpt lat="43.29026" lon="-0.48255">
        <ele>282.765015</ele>
        <time>2012-03-25T07:09:15Z</time>
      </trkpt>
      <trkpt lat="43.29019" lon="-0.48265">
        <ele>280.842407</ele>
        <time>2012-03-25T07:09:18Z</time>
      </trkpt>
      <trkpt lat="43.29012" lon="-0.48271">
        <ele>279.880859</ele>
        <time>2012-03-25T07:09:20Z</time>
      </trkpt>
      <trkpt lat="43.28994" lon="-0.48271">
        <ele>276.516357</ele>
        <time>2012-03-25T07:09:23Z</time>
      </trkpt>
      <trkpt lat="43.2899" lon="-0.48271">
        <ele>276.516357</ele>
        <time>2012-03-25T07:09:24Z</time>
      </trkpt>
      <trkpt lat="43.28987" lon="-0.48273">
        <ele>275.555054</ele>
        <time>2012-03-25T07:09:25Z</time>
      </trkpt>
      <trkpt lat="43.28974" lon="-0.48287">
        <ele>274.113037</ele>
        <time>2012-03-25T07:09:30Z</time>
      </trkpt>
      <trkpt lat="43.28943" lon="-0.48299">
        <ele>274.113037</ele>
        <time>2012-03-25T07:09:37Z</time>
      </trkpt>
      <trkpt lat="43.28886" lon="-0.48291">
        <ele>276.99707</ele>
        <time>2012-03-25T07:09:52Z</time>
      </trkpt>
      <trkpt lat="43.28883" lon="-0.48289">
        <ele>277.477661</ele>
        <time>2012-03-25T07:09:53Z</time>
      </trkpt>
      <trkpt lat="43.28861" lon="-0.48263">
        <ele>280.842407</ele>
        <time>2012-03-25T07:10:03Z</time>
      </trkpt>
      <trkpt lat="43.28835" lon="-0.48227">
        <ele>283.245605</ele>
        <time>2012-03-25T07:10:19Z</time>
      </trkpt>
      <trkpt lat="43.28815" lon="-0.48206">
        <ele>287.09082</ele>
        <time>2012-03-25T07:10:30Z</time>
      </trkpt>
      <trkpt lat="43.28809" lon="-0.48202">
        <ele>288.052246</ele>
        <time>2012-03-25T07:10:34Z</time>
      </trkpt>
      <trkpt lat="43.28781" lon="-0.48203">
        <ele>285.648804</ele>
        <time>2012-03-25T07:10:45Z</time>
      </trkpt>
      <trkpt lat="43.28779" lon="-0.48203">
        <ele>284.687622</ele>
        <time>2012-03-25T07:10:46Z</time>
      </trkpt>
      <trkpt lat="43.28771" lon="-0.48211">
        <ele>283.726196</ele>
        <time>2012-03-25T07:10:52Z</time>
      </trkpt>
      <trkpt lat="43.28741" lon="-0.48229">
        <ele>283.726196</ele>
        <time>2012-03-25T07:11:03Z</time>
      </trkpt>
      <trkpt lat="43.28713" lon="-0.48261">
        <ele>282.765015</ele>
        <time>2012-03-25T07:11:14Z</time>
      </trkpt>
      <trkpt lat="43.28704" lon="-0.48285">
        <ele>281.322998</ele>
        <time>2012-03-25T07:11:18Z</time>
      </trkpt>
      <trkpt lat="43.287" lon="-0.48295">
        <ele>280.842407</ele>
        <time>2012-03-25T07:11:20Z</time>
      </trkpt>
      <trkpt lat="43.28695" lon="-0.48315">
        <ele>278.919678</ele>
        <time>2012-03-25T07:11:23Z</time>
      </trkpt>
      <trkpt lat="43.28684" lon="-0.48357">
        <ele>275.074463</ele>
        <time>2012-03-25T07:11:27Z</time>
      </trkpt>
      <trkpt lat="43.2867" lon="-0.4839">
        <ele>271.229126</ele>
        <time>2012-03-25T07:11:30Z</time>
      </trkpt>
      <trkpt lat="43.28661" lon="-0.48409">
        <ele>269.306519</ele>
        <time>2012-03-25T07:11:32Z</time>
      </trkpt>
      <trkpt lat="43.28638" lon="-0.48429">
        <ele>266.422485</ele>
        <time>2012-03-25T07:11:36Z</time>
      </trkpt>
      <trkpt lat="43.28631" lon="-0.48431">
        <ele>266.422485</ele>
        <time>2012-03-25T07:11:37Z</time>
      </trkpt>
      <trkpt lat="43.28517" lon="-0.48434">
        <ele>266.422485</ele>
        <time>2012-03-25T07:11:55Z</time>
      </trkpt>
      <trkpt lat="43.28501" lon="-0.48439">
        <ele>265.461304</ele>
        <time>2012-03-25T07:11:58Z</time>
      </trkpt>
      <trkpt lat="43.28455" lon="-0.48467">
        <ele>263.538574</ele>
        <time>2012-03-25T07:12:05Z</time>
      </trkpt>
      <trkpt lat="43.28404" lon="-0.48508">
        <ele>260.17395</ele>
        <time>2012-03-25T07:12:12Z</time>
      </trkpt>
      <trkpt lat="43.28313" lon="-0.48608">
        <ele>258.251343</ele>
        <time>2012-03-25T07:12:27Z</time>
      </trkpt>
      <trkpt lat="43.28296" lon="-0.4864">
        <ele>257.770752</ele>
        <time>2012-03-25T07:12:31Z</time>
      </trkpt>
      <trkpt lat="43.28272" lon="-0.48663">
        <ele>259.212646</ele>
        <time>2012-03-25T07:12:36Z</time>
      </trkpt>
      <trkpt lat="43.28217" lon="-0.48685">
        <ele>258.731934</ele>
        <time>2012-03-25T07:12:47Z</time>
      </trkpt>
      <trkpt lat="43.28163" lon="-0.48675">
        <ele>255.848022</ele>
        <time>2012-03-25T07:12:54Z</time>
      </trkpt>
      <trkpt lat="43.2812" lon="-0.48668">
        <ele>253.925415</ele>
        <time>2012-03-25T07:12:59Z</time>
      </trkpt>
      <trkpt lat="43.28031" lon="-0.48651">
        <ele>255.36731</ele>
        <time>2012-03-25T07:13:13Z</time>
      </trkpt>
      <trkpt lat="43.27955" lon="-0.48613">
        <ele>254.886597</ele>
        <time>2012-03-25T07:13:29Z</time>
      </trkpt>
      <trkpt lat="43.27924" lon="-0.48595">
        <ele>253.444702</ele>
        <time>2012-03-25T07:13:34Z</time>
      </trkpt>
      <trkpt lat="43.27894" lon="-0.48586">
        <ele>252.963989</ele>
        <time>2012-03-25T07:13:38Z</time>
      </trkpt>
      <trkpt lat="43.27866" lon="-0.48612">
        <ele>252.483398</ele>
        <time>2012-03-25T07:13:44Z</time>
      </trkpt>
      <trkpt lat="43.27865" lon="-0.48622">
        <ele>253.444702</ele>
        <time>2012-03-25T07:13:46Z</time>
      </trkpt>
      <trkpt lat="43.2788" lon="-0.48698">
        <ele>255.848022</ele>
        <time>2012-03-25T07:14:02Z</time>
      </trkpt>
      <trkpt lat="43.27881" lon="-0.48704">
        <ele>256.328735</ele>
        <time>2012-03-25T07:14:03Z</time>
      </trkpt>
      <trkpt lat="43.27889" lon="-0.48753">
        <ele>254.406006</ele>
        <time>2012-03-25T07:14:09Z</time>
      </trkpt>
      <trkpt lat="43.2791" lon="-0.48809">
        <ele>251.041382</ele>
        <time>2012-03-25T07:14:14Z</time>
      </trkpt>
      <trkpt lat="43.27915" lon="-0.48821">
        <ele>250.560791</ele>
        <time>2012-03-25T07:14:15Z</time>
      </trkpt>
      <trkpt lat="43.27934" lon="-0.48857">
        <ele>247.676758</ele>
        <time>2012-03-25T07:14:18Z</time>
      </trkpt>
      <trkpt lat="43.2794" lon="-0.48869">
        <ele>246.234863</ele>
        <time>2012-03-25T07:14:19Z</time>
      </trkpt>
      <trkpt lat="43.27951" lon="-0.48905">
        <ele>244.312256</ele>
        <time>2012-03-25T07:14:22Z</time>
      </trkpt>
      <trkpt lat="43.27953" lon="-0.48941">
        <ele>242.870239</ele>
        <time>2012-03-25T07:14:25Z</time>
      </trkpt>
      <trkpt lat="43.27947" lon="-0.48964">
        <ele>241.908936</ele>
        <time>2012-03-25T07:14:27Z</time>
      </trkpt>
      <trkpt lat="43.27928" lon="-0.49022">
        <ele>238.063599</ele>
        <time>2012-03-25T07:14:32Z</time>
      </trkpt>
      <trkpt lat="43.27925" lon="-0.49034">
        <ele>238.063599</ele>
        <time>2012-03-25T07:14:33Z</time>
      </trkpt>
      <trkpt lat="43.2792" lon="-0.49055">
        <ele>235.660278</ele>
        <time>2012-03-25T07:14:35Z</time>
      </trkpt>
      <trkpt lat="43.27918" lon="-0.49086">
        <ele>234.218384</ele>
        <time>2012-03-25T07:14:39Z</time>
      </trkpt>
      <trkpt lat="43.27919" lon="-0.491">
        <ele>230.85376</ele>
        <time>2012-03-25T07:14:42Z</time>
      </trkpt>
      <trkpt lat="43.27918" lon="-0.49105">
        <ele>230.85376</ele>
        <time>2012-03-25T07:14:43Z</time>
      </trkpt>
      <trkpt lat="43.27913" lon="-0.49124">
        <ele>228.450439</ele>
        <time>2012-03-25T07:14:46Z</time>
      </trkpt>
      <trkpt lat="43.27903" lon="-0.49155">
        <ele>224.605225</ele>
        <time>2012-03-25T07:14:51Z</time>
      </trkpt>
      <trkpt lat="43.27897" lon="-0.49174">
        <ele>220.759888</ele>
        <time>2012-03-25T07:14:55Z</time>
      </trkpt>
      <trkpt lat="43.27895" lon="-0.49196">
        <ele>217.875977</ele>
        <time>2012-03-25T07:14:59Z</time>
      </trkpt>
      <trkpt lat="43.27898" lon="-0.49213">
        <ele>214.991943</ele>
        <time>2012-03-25T07:15:02Z</time>
      </trkpt>
      <trkpt lat="43.27901" lon="-0.49224">
        <ele>212.588623</ele>
        <time>2012-03-25T07:15:04Z</time>
      </trkpt>
      <trkpt lat="43.27909" lon="-0.49246">
        <ele>208.743408</ele>
        <time>2012-03-25T07:15:08Z</time>
      </trkpt>
      <trkpt lat="43.27914" lon="-0.49266">
        <ele>205.859497</ele>
        <time>2012-03-25T07:15:12Z</time>
      </trkpt>
      <trkpt lat="43.27926" lon="-0.49294">
        <ele>200.572266</ele>
        <time>2012-03-25T07:15:17Z</time>
      </trkpt>
      <trkpt lat="43.27929" lon="-0.49299">
        <ele>199.61084</ele>
        <time>2012-03-25T07:15:18Z</time>
      </trkpt>
      <trkpt lat="43.2795" lon="-0.49334">
        <ele>196.246338</ele>
        <time>2012-03-25T07:15:24Z</time>
      </trkpt>
      <trkpt lat="43.27953" lon="-0.49339">
        <ele>194.804321</ele>
        <time>2012-03-25T07:15:25Z</time>
      </trkpt>
      <trkpt lat="43.27965" lon="-0.49351">
        <ele>192.881714</ele>
        <time>2012-03-25T07:15:28Z</time>
      </trkpt>
      <trkpt lat="43.27991" lon="-0.4935">
        <ele>189.036377</ele>
        <time>2012-03-25T07:15:36Z</time>
      </trkpt>
      <trkpt lat="43.28005" lon="-0.49345">
        <ele>186.152466</ele>
        <time>2012-03-25T07:15:46Z</time>
      </trkpt>
      <trkpt lat="43.28016" lon="-0.49343">
        <ele>183.268433</ele>
        <time>2012-03-25T07:15:56Z</time>
      </trkpt>
      <trkpt lat="43.2802" lon="-0.49342">
        <ele>181.345825</ele>
        <time>2012-03-25T07:15:59Z</time>
      </trkpt>
      <trkpt lat="43.28021" lon="-0.49343">
        <ele>181.826416</ele>
        <time>2012-03-25T07:16:03Z</time>
      </trkpt>
      <trkpt lat="43.28024" lon="-0.49354">
        <ele>179.423218</ele>
        <time>2012-03-25T07:16:07Z</time>
      </trkpt>
      <trkpt lat="43.28028" lon="-0.49374">
        <ele>176.539307</ele>
        <time>2012-03-25T07:16:11Z</time>
      </trkpt>
      <trkpt lat="43.28028" lon="-0.49387">
        <ele>175.09729</ele>
        <time>2012-03-25T07:16:14Z</time>
      </trkpt>
      <trkpt lat="43.28027" lon="-0.49406">
        <ele>171.732666</ele>
        <time>2012-03-25T07:16:18Z</time>
      </trkpt>
      <trkpt lat="43.28023" lon="-0.49422">
        <ele>168.368042</ele>
        <time>2012-03-25T07:16:22Z</time>
      </trkpt>
      <trkpt lat="43.28016" lon="-0.49442">
        <ele>165.964722</ele>
        <time>2012-03-25T07:16:27Z</time>
      </trkpt>
      <trkpt lat="43.28012" lon="-0.49456">
        <ele>163.080811</ele>
        <time>2012-03-25T07:16:30Z</time>
      </trkpt>
      <trkpt lat="43.28009" lon="-0.49466">
        <ele>162.600098</ele>
        <time>2012-03-25T07:16:32Z</time>
      </trkpt>
      <trkpt lat="43.27992" lon="-0.49483">
        <ele>160.196899</ele>
        <time>2012-03-25T07:16:37Z</time>
      </trkpt>
      <trkpt lat="43.27982" lon="-0.495">
        <ele>158.754761</ele>
        <time>2012-03-25T07:16:41Z</time>
      </trkpt>
      <trkpt lat="43.27986" lon="-0.49514">
        <ele>157.312866</ele>
        <time>2012-03-25T07:16:44Z</time>
      </trkpt>
      <trkpt lat="43.28003" lon="-0.49555">
        <ele>155.390259</ele>
        <time>2012-03-25T07:16:50Z</time>
      </trkpt>
      <trkpt lat="43.28027" lon="-0.4962">
        <ele>152.986938</ele>
        <time>2012-03-25T07:16:58Z</time>
      </trkpt>
      <trkpt lat="43.28037" lon="-0.49642">
        <ele>152.025757</ele>
        <time>2012-03-25T07:17:01Z</time>
      </trkpt>
      <trkpt lat="43.28056" lon="-0.49693">
        <ele>152.025757</ele>
        <time>2012-03-25T07:17:08Z</time>
      </trkpt>
      <trkpt lat="43.28057" lon="-0.4973">
        <ele>151.064209</ele>
        <time>2012-03-25T07:17:13Z</time>
      </trkpt>
      <trkpt lat="43.28063" lon="-0.49806">
        <ele>150.583618</ele>
        <time>2012-03-25T07:17:23Z</time>
      </trkpt>
      <trkpt lat="43.28064" lon="-0.49822">
        <ele>151.064209</ele>
        <time>2012-03-25T07:17:25Z</time>
      </trkpt>
      <trkpt lat="43.28063" lon="-0.49851">
        <ele>149.622314</ele>
        <time>2012-03-25T07:17:29Z</time>
      </trkpt>
      <trkpt lat="43.28057" lon="-0.49917">
        <ele>148.661011</ele>
        <time>2012-03-25T07:17:41Z</time>
      </trkpt>
      <trkpt lat="43.2802" lon="-0.50048">
        <ele>148.18042</ele>
        <time>2012-03-25T07:17:59Z</time>
      </trkpt>
      <trkpt lat="43.27994" lon="-0.50142">
        <ele>148.661011</ele>
        <time>2012-03-25T07:18:14Z</time>
      </trkpt>
      <trkpt lat="43.27942" lon="-0.50295">
        <ele>149.141602</ele>
        <time>2012-03-25T07:18:35Z</time>
      </trkpt>
      <trkpt lat="43.27923" lon="-0.50311">
        <ele>149.622314</ele>
        <time>2012-03-25T07:18:39Z</time>
      </trkpt>
      <trkpt lat="43.27911" lon="-0.50314">
        <ele>149.141602</ele>
        <time>2012-03-25T07:18:41Z</time>
      </trkpt>
      <trkpt lat="43.27895" lon="-0.50332">
        <ele>149.622314</ele>
        <time>2012-03-25T07:18:45Z</time>
      </trkpt>
      <trkpt lat="43.27875" lon="-0.50376">
        <ele>149.622314</ele>
        <time>2012-03-25T07:18:52Z</time>
      </trkpt>
      <trkpt lat="43.27858" lon="-0.50398">
        <ele>149.622314</ele>
        <time>2012-03-25T07:18:57Z</time>
      </trkpt>
      <trkpt lat="43.27822" lon="-0.50449">
        <ele>150.103027</ele>
        <time>2012-03-25T07:19:12Z</time>
      </trkpt>
      <trkpt lat="43.27822" lon="-0.50465">
        <ele>149.141602</ele>
        <time>2012-03-25T07:19:22Z</time>
      </trkpt>
      <trkpt lat="43.27826" lon="-0.50474">
        <ele>150.103027</ele>
        <time>2012-03-25T07:19:36Z</time>
      </trkpt>
      <trkpt lat="43.27825" lon="-0.50472">
        <ele>148.661011</ele>
        <time>2012-03-25T07:19:39Z</time>
      </trkpt>
      <trkpt lat="43.27824" lon="-0.50466">
        <ele>147.699707</ele>
        <time>2012-03-25T07:19:54Z</time>
      </trkpt>
      <trkpt lat="43.27824" lon="-0.50465">
        <ele>149.622314</ele>
        <time>2012-03-25T07:20:10Z</time>
      </trkpt>
      <trkpt lat="43.27825" lon="-0.50464">
        <ele>148.18042</ele>
        <time>2012-03-25T07:20:22Z</time>
      </trkpt>
      <trkpt lat="43.27825" lon="-0.50467">
        <ele>148.661011</ele>
        <time>2012-03-25T07:20:40Z</time>
      </trkpt>
      <trkpt lat="43.27827" lon="-0.50471">
        <ele>146.738403</ele>
        <time>2012-03-25T07:20:52Z</time>
      </trkpt>
      <trkpt lat="43.27826" lon="-0.5047">
        <ele>150.103027</ele>
        <time>2012-03-25T07:21:23Z</time>
      </trkpt>
      <trkpt lat="43.27826" lon="-0.5047">
        <ele>150.103027</ele>
        <time>2012-03-25T07:21:34Z</time>
      </trkpt>
      <trkpt lat="43.27828" lon="-0.50482">
        <ele>150.103027</ele>
        <time>2012-03-25T07:21:46Z</time>
      </trkpt>
      <trkpt lat="43.27835" lon="-0.50511">
        <ele>149.622314</ele>
        <time>2012-03-25T07:22:06Z</time>
      </trkpt>
      <trkpt lat="43.27832" lon="-0.50534">
        <ele>150.583618</ele>
        <time>2012-03-25T07:22:17Z</time>
      </trkpt>
      <trkpt lat="43.27817" lon="-0.50612">
        <ele>152.025757</ele>
        <time>2012-03-25T07:22:35Z</time>
      </trkpt>
      <trkpt lat="43.27805" lon="-0.50684">
        <ele>151.544922</ele>
        <time>2012-03-25T07:22:48Z</time>
      </trkpt>
      <trkpt lat="43.27805" lon="-0.50706">
        <ele>152.506348</ele>
        <time>2012-03-25T07:22:52Z</time>
      </trkpt>
      <trkpt lat="43.27804" lon="-0.50781">
        <ele>154.428955</ele>
        <time>2012-03-25T07:23:07Z</time>
      </trkpt>
      <trkpt lat="43.27831" lon="-0.50797">
        <ele>157.312866</ele>
        <time>2012-03-25T07:23:15Z</time>
      </trkpt>
      <trkpt lat="43.27854" lon="-0.50798">
        <ele>157.312866</ele>
        <time>2012-03-25T07:23:21Z</time>
      </trkpt>
      <trkpt lat="43.27894" lon="-0.508">
        <ele>155.870972</ele>
        <time>2012-03-25T07:23:29Z</time>
      </trkpt>
      <trkpt lat="43.2791" lon="-0.50787">
        <ele>157.312866</ele>
        <time>2012-03-25T07:23:33Z</time>
      </trkpt>
      <trkpt lat="43.27931" lon="-0.50715">
        <ele>155.390259</ele>
        <time>2012-03-25T07:23:44Z</time>
      </trkpt>
      <trkpt lat="43.27958" lon="-0.50685">
        <ele>154.428955</ele>
        <time>2012-03-25T07:23:50Z</time>
      </trkpt>
      <trkpt lat="43.2799" lon="-0.50669">
        <ele>153.467651</ele>
        <time>2012-03-25T07:23:56Z</time>
      </trkpt>
      <trkpt lat="43.28009" lon="-0.50651">
        <ele>153.467651</ele>
        <time>2012-03-25T07:24:00Z</time>
      </trkpt>
      <trkpt lat="43.28084" lon="-0.50591">
        <ele>151.064209</ele>
        <time>2012-03-25T07:24:17Z</time>
      </trkpt>
      <trkpt lat="43.28097" lon="-0.50581">
        <ele>151.544922</ele>
        <time>2012-03-25T07:24:20Z</time>
      </trkpt>
      <trkpt lat="43.28112" lon="-0.50562">
        <ele>151.064209</ele>
        <time>2012-03-25T07:24:24Z</time>
      </trkpt>
      <trkpt lat="43.28151" lon="-0.50495">
        <ele>149.622314</ele>
        <time>2012-03-25T07:24:36Z</time>
      </trkpt>
      <trkpt lat="43.28228" lon="-0.5046">
        <ele>148.18042</ele>
        <time>2012-03-25T07:24:52Z</time>
      </trkpt>
      <trkpt lat="43.28263" lon="-0.50455">
        <ele>147.699707</ele>
        <time>2012-03-25T07:24:59Z</time>
      </trkpt>
      <trkpt lat="43.28272" lon="-0.50452">
        <ele>147.699707</ele>
        <time>2012-03-25T07:25:01Z</time>
      </trkpt>
      <trkpt lat="43.28287" lon="-0.5045">
        <ele>147.218994</ele>
        <time>2012-03-25T07:25:04Z</time>
      </trkpt>
      <trkpt lat="43.28301" lon="-0.5045">
        <ele>148.18042</ele>
        <time>2012-03-25T07:25:07Z</time>
      </trkpt>
      <trkpt lat="43.28322" lon="-0.50438">
        <ele>147.699707</ele>
        <time>2012-03-25T07:25:12Z</time>
      </trkpt>
      <trkpt lat="43.28363" lon="-0.5041">
        <ele>147.699707</ele>
        <time>2012-03-25T07:25:21Z</time>
      </trkpt>
      <trkpt lat="43.28382" lon="-0.50412">
        <ele>146.738403</ele>
        <time>2012-03-25T07:25:27Z</time>
      </trkpt>
      <trkpt lat="43.28395" lon="-0.50453">
        <ele>148.18042</ele>
        <time>2012-03-25T07:25:43Z</time>
      </trkpt>
      <trkpt lat="43.28399" lon="-0.50509">
        <ele>149.141602</ele>
        <time>2012-03-25T07:25:56Z</time>
      </trkpt>
      <trkpt lat="43.28405" lon="-0.50596">
        <ele>149.141602</ele>
        <time>2012-03-25T07:26:12Z</time>
      </trkpt>
      <trkpt lat="43.2843" lon="-0.5063">
        <ele>149.141602</ele>
        <time>2012-03-25T07:26:22Z</time>
      </trkpt>
      <trkpt lat="43.28466" lon="-0.50645">
        <ele>149.622314</ele>
        <time>2012-03-25T07:26:30Z</time>
      </trkpt>
      <trkpt lat="43.28543" lon="-0.50706">
        <ele>149.622314</ele>
        <time>2012-03-25T07:26:47Z</time>
      </trkpt>
      <trkpt lat="43.2857" lon="-0.50725">
        <ele>150.583618</ele>
        <time>2012-03-25T07:26:53Z</time>
      </trkpt>
      <trkpt lat="43.28583" lon="-0.50765">
        <ele>151.544922</ele>
        <time>2012-03-25T07:27:00Z</time>
      </trkpt>
      <trkpt lat="43.28564" lon="-0.50898">
        <ele>153.948364</ele>
        <time>2012-03-25T07:27:21Z</time>
      </trkpt>
      <trkpt lat="43.2855" lon="-0.5094">
        <ele>155.390259</ele>
        <time>2012-03-25T07:27:29Z</time>
      </trkpt>
      <trkpt lat="43.28567" lon="-0.50971">
        <ele>157.312866</ele>
        <time>2012-03-25T07:27:38Z</time>
      </trkpt>
      <trkpt lat="43.28639" lon="-0.50974">
        <ele>155.390259</ele>
        <time>2012-03-25T07:27:52Z</time>
      </trkpt>
      <trkpt lat="43.28773" lon="-0.5098">
        <ele>154.909546</ele>
        <time>2012-03-25T07:28:12Z</time>
      </trkpt>
      <trkpt lat="43.28864" lon="-0.50971">
        <ele>154.909546</ele>
        <time>2012-03-25T07:28:28Z</time>
      </trkpt>
      <trkpt lat="43.28948" lon="-0.50948">
        <ele>151.544922</ele>
        <time>2012-03-25T07:28:42Z</time>
      </trkpt>
      <trkpt lat="43.29056" lon="-0.50873">
        <ele>148.18042</ele>
        <time>2012-03-25T07:29:01Z</time>
      </trkpt>
      <trkpt lat="43.29072" lon="-0.50861">
        <ele>147.218994</ele>
        <time>2012-03-25T07:29:04Z</time>
      </trkpt>
      <trkpt lat="43.29091" lon="-0.50874">
        <ele>147.699707</ele>
        <time>2012-03-25T07:29:09Z</time>
      </trkpt>
      <trkpt lat="43.29099" lon="-0.50995">
        <ele>147.218994</ele>
        <time>2012-03-25T07:29:24Z</time>
      </trkpt>
      <trkpt lat="43.29098" lon="-0.51003">
        <ele>147.218994</ele>
        <time>2012-03-25T07:29:25Z</time>
      </trkpt>
      <trkpt lat="43.29116" lon="-0.51051">
        <ele>147.218994</ele>
        <time>2012-03-25T07:29:32Z</time>
      </trkpt>
      <trkpt lat="43.29197" lon="-0.51128">
        <ele>147.699707</ele>
        <time>2012-03-25T07:29:49Z</time>
      </trkpt>
      <trkpt lat="43.29289" lon="-0.51202">
        <ele>149.141602</ele>
        <time>2012-03-25T07:30:09Z</time>
      </trkpt>
      <trkpt lat="43.29369" lon="-0.51277">
        <ele>147.699707</ele>
        <time>2012-03-25T07:30:26Z</time>
      </trkpt>
      <trkpt lat="43.29453" lon="-0.51392">
        <ele>146.257812</ele>
        <time>2012-03-25T07:30:45Z</time>
      </trkpt>
      <trkpt lat="43.29569" lon="-0.5148">
        <ele>144.335205</ele>
        <time>2012-03-25T07:31:05Z</time>
      </trkpt>
      <trkpt lat="43.29678" lon="-0.51566">
        <ele>145.7771</ele>
        <time>2012-03-25T07:31:25Z</time>
      </trkpt>
      <trkpt lat="43.29765" lon="-0.51651">
        <ele>147.699707</ele>
        <time>2012-03-25T07:31:45Z</time>
      </trkpt>
      <trkpt lat="43.29773" lon="-0.51659">
        <ele>147.699707</ele>
        <time>2012-03-25T07:31:47Z</time>
      </trkpt>
      <trkpt lat="43.29785" lon="-0.51695">
        <ele>148.18042</ele>
        <time>2012-03-25T07:31:53Z</time>
      </trkpt>
      <trkpt lat="43.29786" lon="-0.51806">
        <ele>151.544922</ele>
        <time>2012-03-25T07:32:12Z</time>
      </trkpt>
      <trkpt lat="43.29804" lon="-0.51873">
        <ele>152.986938</ele>
        <time>2012-03-25T07:32:28Z</time>
      </trkpt>
      <trkpt lat="43.29857" lon="-0.51916">
        <ele>152.025757</ele>
        <time>2012-03-25T07:32:41Z</time>
      </trkpt>
      <trkpt lat="43.29937" lon="-0.52007">
        <ele>152.025757</ele>
        <time>2012-03-25T07:33:00Z</time>
      </trkpt>
      <trkpt lat="43.29959" lon="-0.52013">
        <ele>152.025757</ele>
        <time>2012-03-25T07:33:06Z</time>
      </trkpt>
      <trkpt lat="43.29976" lon="-0.52006">
        <ele>153.948364</ele>
        <time>2012-03-25T07:33:11Z</time>
      </trkpt>
      <trkpt lat="43.30041" lon="-0.51988">
        <ele>154.428955</ele>
        <time>2012-03-25T07:33:27Z</time>
      </trkpt>
      <trkpt lat="43.30087" lon="-0.51987">
        <ele>152.506348</ele>
        <time>2012-03-25T07:33:35Z</time>
      </trkpt>
      <trkpt lat="43.30115" lon="-0.51997">
        <ele>153.467651</ele>
        <time>2012-03-25T07:33:40Z</time>
      </trkpt>
      <trkpt lat="43.30138" lon="-0.52025">
        <ele>157.312866</ele>
        <time>2012-03-25T07:33:51Z</time>
      </trkpt>
      <trkpt lat="43.30141" lon="-0.52055">
        <ele>160.196899</ele>
        <time>2012-03-25T07:34:01Z</time>
      </trkpt>
      <trkpt lat="43.30142" lon="-0.5206">
        <ele>161.158203</ele>
        <time>2012-03-25T07:34:03Z</time>
      </trkpt>
      <trkpt lat="43.30145" lon="-0.52103">
        <ele>165.003418</ele>
        <time>2012-03-25T07:34:19Z</time>
      </trkpt>
      <trkpt lat="43.30146" lon="-0.52106">
        <ele>165.484131</ele>
        <time>2012-03-25T07:34:20Z</time>
      </trkpt>
      <trkpt lat="43.30144" lon="-0.52144">
        <ele>168.368042</ele>
        <time>2012-03-25T07:34:34Z</time>
      </trkpt>
      <trkpt lat="43.30142" lon="-0.52171">
        <ele>171.732666</ele>
        <time>2012-03-25T07:34:44Z</time>
      </trkpt>
      <trkpt lat="43.30143" lon="-0.52223">
        <ele>174.135864</ele>
        <time>2012-03-25T07:35:02Z</time>
      </trkpt>
      <trkpt lat="43.30144" lon="-0.52276">
        <ele>176.539307</ele>
        <time>2012-03-25T07:35:18Z</time>
      </trkpt>
      <trkpt lat="43.30147" lon="-0.5232">
        <ele>179.423218</ele>
        <time>2012-03-25T07:35:32Z</time>
      </trkpt>
      <trkpt lat="43.3015" lon="-0.52374">
        <ele>182.307129</ele>
        <time>2012-03-25T07:35:51Z</time>
      </trkpt>
      <trkpt lat="43.30151" lon="-0.52408">
        <ele>184.710571</ele>
        <time>2012-03-25T07:36:09Z</time>
      </trkpt>
      <trkpt lat="43.30154" lon="-0.52413">
        <ele>184.229858</ele>
        <time>2012-03-25T07:36:25Z</time>
      </trkpt>
      <trkpt lat="43.30152" lon="-0.52424">
        <ele>185.671753</ele>
        <time>2012-03-25T07:36:42Z</time>
      </trkpt>
      <trkpt lat="43.30153" lon="-0.52434">
        <ele>187.11377</ele>
        <time>2012-03-25T07:36:56Z</time>
      </trkpt>
      <trkpt lat="43.30153" lon="-0.52435">
        <ele>187.11377</ele>
        <time>2012-03-25T07:36:58Z</time>
      </trkpt>
      <trkpt lat="43.30152" lon="-0.52457">
        <ele>190.478394</ele>
        <time>2012-03-25T07:37:12Z</time>
      </trkpt>
      <trkpt lat="43.30153" lon="-0.52459">
        <ele>189.036377</ele>
        <time>2012-03-25T07:37:17Z</time>
      </trkpt>
      <trkpt lat="43.30154" lon="-0.52469">
        <ele>190.478394</ele>
        <time>2012-03-25T07:37:21Z</time>
      </trkpt>
      <trkpt lat="43.30158" lon="-0.52506">
        <ele>194.32373</ele>
        <time>2012-03-25T07:37:37Z</time>
      </trkpt>
      <trkpt lat="43.30163" lon="-0.52535">
        <ele>197.688232</ele>
        <time>2012-03-25T07:37:51Z</time>
      </trkpt>
      <trkpt lat="43.30175" lon="-0.52564">
        <ele>199.61084</ele>
        <time>2012-03-25T07:38:06Z</time>
      </trkpt>
      <trkpt lat="43.30176" lon="-0.52577">
        <ele>201.533569</ele>
        <time>2012-03-25T07:38:12Z</time>
      </trkpt>
      <trkpt lat="43.30176" lon="-0.52597">
        <ele>204.41748</ele>
        <time>2012-03-25T07:38:22Z</time>
      </trkpt>
      <trkpt lat="43.30176" lon="-0.52627">
        <ele>208.262817</ele>
        <time>2012-03-25T07:38:36Z</time>
      </trkpt>
      <trkpt lat="43.30176" lon="-0.52649">
        <ele>211.146729</ele>
        <time>2012-03-25T07:38:47Z</time>
      </trkpt>
      <trkpt lat="43.30176" lon="-0.52697">
        <ele>214.51123</ele>
        <time>2012-03-25T07:39:09Z</time>
      </trkpt>
      <trkpt lat="43.30167" lon="-0.5275">
        <ele>217.395386</ele>
        <time>2012-03-25T07:39:33Z</time>
      </trkpt>
      <trkpt lat="43.30162" lon="-0.52774">
        <ele>219.317993</ele>
        <time>2012-03-25T07:39:44Z</time>
      </trkpt>
      <trkpt lat="43.30156" lon="-0.528">
        <ele>222.682495</ele>
        <time>2012-03-25T07:39:56Z</time>
      </trkpt>
      <trkpt lat="43.30147" lon="-0.52836">
        <ele>225.566528</ele>
        <time>2012-03-25T07:40:12Z</time>
      </trkpt>
      <trkpt lat="43.30136" lon="-0.5287">
        <ele>228.931152</ele>
        <time>2012-03-25T07:40:29Z</time>
      </trkpt>
      <trkpt lat="43.30126" lon="-0.52899">
        <ele>231.334351</ele>
        <time>2012-03-25T07:40:43Z</time>
      </trkpt>
      <trkpt lat="43.30112" lon="-0.52944">
        <ele>233.737671</ele>
        <time>2012-03-25T07:41:00Z</time>
      </trkpt>
      <trkpt lat="43.30106" lon="-0.5297">
        <ele>234.218384</ele>
        <time>2012-03-25T07:41:09Z</time>
      </trkpt>
      <trkpt lat="43.30069" lon="-0.52998">
        <ele>235.660278</ele>
        <time>2012-03-25T07:41:24Z</time>
      </trkpt>
      <trkpt lat="43.30022" lon="-0.53038">
        <ele>238.544312</ele>
        <time>2012-03-25T07:41:41Z</time>
      </trkpt>
      <trkpt lat="43.29966" lon="-0.53076">
        <ele>239.986206</ele>
        <time>2012-03-25T07:42:02Z</time>
      </trkpt>
      <trkpt lat="43.29927" lon="-0.53101">
        <ele>241.908936</ele>
        <time>2012-03-25T07:42:17Z</time>
      </trkpt>
      <trkpt lat="43.29932" lon="-0.53115">
        <ele>242.870239</ele>
        <time>2012-03-25T07:42:23Z</time>
      </trkpt>
      <trkpt lat="43.29985" lon="-0.53141">
        <ele>245.75415</ele>
        <time>2012-03-25T07:42:40Z</time>
      </trkpt>
      <trkpt lat="43.30049" lon="-0.53171">
        <ele>246.715454</ele>
        <time>2012-03-25T07:42:58Z</time>
      </trkpt>
      <trkpt lat="43.30124" lon="-0.53206">
        <ele>243.831543</ele>
        <time>2012-03-25T07:43:13Z</time>
      </trkpt>
      <trkpt lat="43.30163" lon="-0.53223">
        <ele>240.467041</ele>
        <time>2012-03-25T07:43:18Z</time>
      </trkpt>
      <trkpt lat="43.30187" lon="-0.5324">
        <ele>238.063599</ele>
        <time>2012-03-25T07:43:21Z</time>
      </trkpt>
      <trkpt lat="43.30211" lon="-0.53259">
        <ele>236.621704</ele>
        <time>2012-03-25T07:43:24Z</time>
      </trkpt>
      <trkpt lat="43.3026" lon="-0.53316">
        <ele>235.660278</ele>
        <time>2012-03-25T07:43:32Z</time>
      </trkpt>
      <trkpt lat="43.30272" lon="-0.53327">
        <ele>235.660278</ele>
        <time>2012-03-25T07:43:34Z</time>
      </trkpt>
      <trkpt lat="43.30311" lon="-0.53375">
        <ele>237.102295</ele>
        <time>2012-03-25T07:43:44Z</time>
      </trkpt>
      <trkpt lat="43.30327" lon="-0.53397">
        <ele>237.582886</ele>
        <time>2012-03-25T07:43:49Z</time>
      </trkpt>
      <trkpt lat="43.30348" lon="-0.53429">
        <ele>239.024902</ele>
        <time>2012-03-25T07:43:56Z</time>
      </trkpt>
      <trkpt lat="43.30386" lon="-0.53476">
        <ele>241.908936</ele>
        <time>2012-03-25T07:44:10Z</time>
      </trkpt>
      <trkpt lat="43.3043" lon="-0.53527">
        <ele>243.831543</ele>
        <time>2012-03-25T07:44:29Z</time>
      </trkpt>
      <trkpt lat="43.3046" lon="-0.53569">
        <ele>245.273438</ele>
        <time>2012-03-25T07:44:43Z</time>
      </trkpt>
      <trkpt lat="43.3048" lon="-0.536">
        <ele>248.638184</ele>
        <time>2012-03-25T07:44:54Z</time>
      </trkpt>
      <trkpt lat="43.30486" lon="-0.53603">
        <ele>249.118774</ele>
        <time>2012-03-25T07:44:57Z</time>
      </trkpt>
      <trkpt lat="43.30511" lon="-0.53568">
        <ele>246.234863</ele>
        <time>2012-03-25T07:45:04Z</time>
      </trkpt>
      <trkpt lat="43.30531" lon="-0.53532">
        <ele>243.35083</ele>
        <time>2012-03-25T07:45:08Z</time>
      </trkpt>
      <trkpt lat="43.30539" lon="-0.53516">
        <ele>239.986206</ele>
        <time>2012-03-25T07:45:10Z</time>
      </trkpt>
      <trkpt lat="43.30548" lon="-0.53495">
        <ele>237.582886</ele>
        <time>2012-03-25T07:45:13Z</time>
      </trkpt>
      <trkpt lat="43.3055" lon="-0.5349">
        <ele>236.140991</ele>
        <time>2012-03-25T07:45:14Z</time>
      </trkpt>
      <trkpt lat="43.30562" lon="-0.5348">
        <ele>233.25708</ele>
        <time>2012-03-25T07:45:17Z</time>
      </trkpt>
      <trkpt lat="43.30573" lon="-0.53483">
        <ele>232.295776</ele>
        <time>2012-03-25T07:45:19Z</time>
      </trkpt>
      <trkpt lat="43.30609" lon="-0.53496">
        <ele>227.489136</ele>
        <time>2012-03-25T07:45:24Z</time>
      </trkpt>
      <trkpt lat="43.30649" lon="-0.53508">
        <ele>223.643799</ele>
        <time>2012-03-25T07:45:31Z</time>
      </trkpt>
      <trkpt lat="43.30656" lon="-0.53511">
        <ele>223.163208</ele>
        <time>2012-03-25T07:45:33Z</time>
      </trkpt>
      <trkpt lat="43.30687" lon="-0.53522">
        <ele>220.279175</ele>
        <time>2012-03-25T07:45:42Z</time>
      </trkpt>
      <trkpt lat="43.30699" lon="-0.5351">
        <ele>219.317993</ele>
        <time>2012-03-25T07:45:47Z</time>
      </trkpt>
      <trkpt lat="43.30717" lon="-0.53476">
        <ele>218.83728</ele>
        <time>2012-03-25T07:45:55Z</time>
      </trkpt>
      <trkpt lat="43.30729" lon="-0.53462">
        <ele>218.83728</ele>
        <time>2012-03-25T07:45:59Z</time>
      </trkpt>
      <trkpt lat="43.30756" lon="-0.5343">
        <ele>216.43396</ele>
        <time>2012-03-25T07:46:05Z</time>
      </trkpt>
      <trkpt lat="43.30778" lon="-0.53404">
        <ele>212.588623</ele>
        <time>2012-03-25T07:46:09Z</time>
      </trkpt>
      <trkpt lat="43.30783" lon="-0.53398">
        <ele>212.108032</ele>
        <time>2012-03-25T07:46:10Z</time>
      </trkpt>
      <trkpt lat="43.30792" lon="-0.5337">
        <ele>209.704834</ele>
        <time>2012-03-25T07:46:14Z</time>
      </trkpt>
      <trkpt lat="43.30801" lon="-0.53356">
        <ele>208.743408</ele>
        <time>2012-03-25T07:46:16Z</time>
      </trkpt>
      <trkpt lat="43.30815" lon="-0.53338">
        <ele>205.859497</ele>
        <time>2012-03-25T07:46:19Z</time>
      </trkpt>
      <trkpt lat="43.30859" lon="-0.53305">
        <ele>200.572266</ele>
        <time>2012-03-25T07:46:25Z</time>
      </trkpt>
      <trkpt lat="43.30886" lon="-0.5328">
        <ele>199.130127</ele>
        <time>2012-03-25T07:46:29Z</time>
      </trkpt>
      <trkpt lat="43.30911" lon="-0.5326">
        <ele>196.726929</ele>
        <time>2012-03-25T07:46:33Z</time>
      </trkpt>
      <trkpt lat="43.30929" lon="-0.53239">
        <ele>193.362305</ele>
        <time>2012-03-25T07:46:37Z</time>
      </trkpt>
      <trkpt lat="43.30956" lon="-0.53217">
        <ele>190.958984</ele>
        <time>2012-03-25T07:46:42Z</time>
      </trkpt>
      <trkpt lat="43.30995" lon="-0.53188">
        <ele>189.036377</ele>
        <time>2012-03-25T07:46:48Z</time>
      </trkpt>
      <trkpt lat="43.31027" lon="-0.5315">
        <ele>187.11377</ele>
        <time>2012-03-25T07:46:54Z</time>
      </trkpt>
      <trkpt lat="43.31049" lon="-0.53137">
        <ele>185.191162</ele>
        <time>2012-03-25T07:46:57Z</time>
      </trkpt>
      <trkpt lat="43.31099" lon="-0.53106">
        <ele>182.307129</ele>
        <time>2012-03-25T07:47:04Z</time>
      </trkpt>
      <trkpt lat="43.31139" lon="-0.5307">
        <ele>177.981201</ele>
        <time>2012-03-25T07:47:11Z</time>
      </trkpt>
      <trkpt lat="43.31159" lon="-0.53043">
        <ele>175.577881</ele>
        <time>2012-03-25T07:47:15Z</time>
      </trkpt>
      <trkpt lat="43.3117" lon="-0.53032">
        <ele>174.616577</ele>
        <time>2012-03-25T07:47:17Z</time>
      </trkpt>
      <trkpt lat="43.31216" lon="-0.52989">
        <ele>172.213257</ele>
        <time>2012-03-25T07:47:25Z</time>
      </trkpt>
      <trkpt lat="43.31246" lon="-0.5295">
        <ele>168.848755</ele>
        <time>2012-03-25T07:47:30Z</time>
      </trkpt>
      <trkpt lat="43.31252" lon="-0.52941">
        <ele>168.848755</ele>
        <time>2012-03-25T07:47:31Z</time>
      </trkpt>
      <trkpt lat="43.31277" lon="-0.52904">
        <ele>164.522705</ele>
        <time>2012-03-25T07:47:35Z</time>
      </trkpt>
      <trkpt lat="43.313" lon="-0.52877">
        <ele>160.67749</ele>
        <time>2012-03-25T07:47:38Z</time>
      </trkpt>
      <trkpt lat="43.31308" lon="-0.52868">
        <ele>161.158203</ele>
        <time>2012-03-25T07:47:39Z</time>
      </trkpt>
      <trkpt lat="43.31322" lon="-0.52851">
        <ele>159.235474</ele>
        <time>2012-03-25T07:47:41Z</time>
      </trkpt>
      <trkpt lat="43.31338" lon="-0.52832">
        <ele>157.793579</ele>
        <time>2012-03-25T07:47:44Z</time>
      </trkpt>
      <trkpt lat="43.31358" lon="-0.52806">
        <ele>154.909546</ele>
        <time>2012-03-25T07:47:48Z</time>
      </trkpt>
      <trkpt lat="43.31368" lon="-0.52791">
        <ele>154.909546</ele>
        <time>2012-03-25T07:47:50Z</time>
      </trkpt>
      <trkpt lat="43.31418" lon="-0.52736">
        <ele>150.583618</ele>
        <time>2012-03-25T07:47:58Z</time>
      </trkpt>
      <trkpt lat="43.31456" lon="-0.52694">
        <ele>146.738403</ele>
        <time>2012-03-25T07:48:04Z</time>
      </trkpt>
      <trkpt lat="43.31467" lon="-0.52679">
        <ele>145.7771</ele>
        <time>2012-03-25T07:48:06Z</time>
      </trkpt>
      <trkpt lat="43.31546" lon="-0.52592">
        <ele>142.412476</ele>
        <time>2012-03-25T07:48:19Z</time>
      </trkpt>
      <trkpt lat="43.31571" lon="-0.52568">
        <ele>140.489868</ele>
        <time>2012-03-25T07:48:23Z</time>
      </trkpt>
      <trkpt lat="43.31602" lon="-0.52515">
        <ele>138.086548</ele>
        <time>2012-03-25T07:48:30Z</time>
      </trkpt>
      <trkpt lat="43.31639" lon="-0.52424">
        <ele>136.644653</ele>
        <time>2012-03-25T07:48:43Z</time>
      </trkpt>
      <trkpt lat="43.31647" lon="-0.52406">
        <ele>136.16394</ele>
        <time>2012-03-25T07:48:46Z</time>
      </trkpt>
      <trkpt lat="43.31668" lon="-0.52403">
        <ele>136.16394</ele>
        <time>2012-03-25T07:48:51Z</time>
      </trkpt>
      <trkpt lat="43.31732" lon="-0.52459">
        <ele>135.202515</ele>
        <time>2012-03-25T07:49:03Z</time>
      </trkpt>
      <trkpt lat="43.31759" lon="-0.52469">
        <ele>135.202515</ele>
        <time>2012-03-25T07:49:07Z</time>
      </trkpt>
      <trkpt lat="43.31772" lon="-0.52471">
        <ele>135.202515</ele>
        <time>2012-03-25T07:49:09Z</time>
      </trkpt>
      <trkpt lat="43.31861" lon="-0.52509">
        <ele>135.202515</ele>
        <time>2012-03-25T07:49:24Z</time>
      </trkpt>
      <trkpt lat="43.31878" lon="-0.52519">
        <ele>134.721924</ele>
        <time>2012-03-25T07:49:27Z</time>
      </trkpt>
      <trkpt lat="43.31898" lon="-0.52538">
        <ele>134.241211</ele>
        <time>2012-03-25T07:49:31Z</time>
      </trkpt>
      <trkpt lat="43.31928" lon="-0.52579">
        <ele>135.202515</ele>
        <time>2012-03-25T07:49:38Z</time>
      </trkpt>
      <trkpt lat="43.3193" lon="-0.52639">
        <ele>135.202515</ele>
        <time>2012-03-25T07:49:46Z</time>
      </trkpt>
      <trkpt lat="43.31927" lon="-0.52646">
        <ele>135.202515</ele>
        <time>2012-03-25T07:49:47Z</time>
      </trkpt>
      <trkpt lat="43.31922" lon="-0.5266">
        <ele>135.202515</ele>
        <time>2012-03-25T07:49:49Z</time>
      </trkpt>
      <trkpt lat="43.31921" lon="-0.52705">
        <ele>135.683105</ele>
        <time>2012-03-25T07:49:55Z</time>
      </trkpt>
      <trkpt lat="43.31956" lon="-0.52864">
        <ele>135.683105</ele>
        <time>2012-03-25T07:50:16Z</time>
      </trkpt>
      <trkpt lat="43.3196" lon="-0.52879">
        <ele>136.16394</ele>
        <time>2012-03-25T07:50:18Z</time>
      </trkpt>
      <trkpt lat="43.31986" lon="-0.52933">
        <ele>136.644653</ele>
        <time>2012-03-25T07:50:26Z</time>
      </trkpt>
      <trkpt lat="43.32013" lon="-0.52985">
        <ele>137.605835</ele>
        <time>2012-03-25T07:50:34Z</time>
      </trkpt>
      <trkpt lat="43.32085" lon="-0.53072">
        <ele>139.047852</ele>
        <time>2012-03-25T07:50:53Z</time>
      </trkpt>
      <trkpt lat="43.32088" lon="-0.53077">
        <ele>139.047852</ele>
        <time>2012-03-25T07:50:54Z</time>
      </trkpt>
      <trkpt lat="43.32097" lon="-0.531">
        <ele>139.047852</ele>
        <time>2012-03-25T07:50:58Z</time>
      </trkpt>
      <trkpt lat="43.32129" lon="-0.53223">
        <ele>142.412476</ele>
        <time>2012-03-25T07:51:19Z</time>
      </trkpt>
      <trkpt lat="43.32136" lon="-0.53254">
        <ele>144.335205</ele>
        <time>2012-03-25T07:51:25Z</time>
      </trkpt>
      <trkpt lat="43.32174" lon="-0.53316">
        <ele>146.738403</ele>
        <time>2012-03-25T07:51:40Z</time>
      </trkpt>
      <trkpt lat="43.32209" lon="-0.53414">
        <ele>147.218994</ele>
        <time>2012-03-25T07:51:58Z</time>
      </trkpt>
      <trkpt lat="43.32248" lon="-0.53513">
        <ele>146.738403</ele>
        <time>2012-03-25T07:52:11Z</time>
      </trkpt>
      <trkpt lat="43.32301" lon="-0.5363">
        <ele>143.373657</ele>
        <time>2012-03-25T07:52:25Z</time>
      </trkpt>
      <trkpt lat="43.32326" lon="-0.53694">
        <ele>140.970459</ele>
        <time>2012-03-25T07:52:31Z</time>
      </trkpt>
      <trkpt lat="43.32389" lon="-0.53783">
        <ele>141.45105</ele>
        <time>2012-03-25T07:52:42Z</time>
      </trkpt>
      <trkpt lat="43.32448" lon="-0.53883">
        <ele>141.931763</ele>
        <time>2012-03-25T07:52:56Z</time>
      </trkpt>
      <trkpt lat="43.32492" lon="-0.53973">
        <ele>144.815796</ele>
        <time>2012-03-25T07:53:10Z</time>
      </trkpt>
      <trkpt lat="43.32503" lon="-0.53992">
        <ele>146.257812</ele>
        <time>2012-03-25T07:53:14Z</time>
      </trkpt>
      <trkpt lat="43.3252" lon="-0.53987">
        <ele>145.7771</ele>
        <time>2012-03-25T07:53:19Z</time>
      </trkpt>
      <trkpt lat="43.32545" lon="-0.53951">
        <ele>142.893066</ele>
        <time>2012-03-25T07:53:24Z</time>
      </trkpt>
      <trkpt lat="43.32564" lon="-0.5392">
        <ele>140.009155</ele>
        <time>2012-03-25T07:53:27Z</time>
      </trkpt>
      <trkpt lat="43.32584" lon="-0.53887">
        <ele>136.644653</ele>
        <time>2012-03-25T07:53:30Z</time>
      </trkpt>
      <trkpt lat="43.3259" lon="-0.53877">
        <ele>137.125244</ele>
        <time>2012-03-25T07:53:31Z</time>
      </trkpt>
      <trkpt lat="43.32616" lon="-0.53837">
        <ele>134.721924</ele>
        <time>2012-03-25T07:53:35Z</time>
      </trkpt>
      <trkpt lat="43.32628" lon="-0.53819">
        <ele>133.760498</ele>
        <time>2012-03-25T07:53:37Z</time>
      </trkpt>
      <trkpt lat="43.32633" lon="-0.5381">
        <ele>133.279907</ele>
        <time>2012-03-25T07:53:38Z</time>
      </trkpt>
      <trkpt lat="43.32647" lon="-0.5378">
        <ele>131.837891</ele>
        <time>2012-03-25T07:53:41Z</time>
      </trkpt>
      <trkpt lat="43.3268" lon="-0.53758">
        <ele>131.3573</ele>
        <time>2012-03-25T07:53:47Z</time>
      </trkpt>
      <trkpt lat="43.32691" lon="-0.53767">
        <ele>130.876709</ele>
        <time>2012-03-25T07:53:49Z</time>
      </trkpt>
      <trkpt lat="43.32735" lon="-0.53803">
        <ele>131.3573</ele>
        <time>2012-03-25T07:53:57Z</time>
      </trkpt>
      <trkpt lat="43.32825" lon="-0.53876">
        <ele>130.876709</ele>
        <time>2012-03-25T07:54:13Z</time>
      </trkpt>
      <trkpt lat="43.32878" lon="-0.53929">
        <ele>131.837891</ele>
        <time>2012-03-25T07:54:24Z</time>
      </trkpt>
      <trkpt lat="43.32901" lon="-0.53918">
        <ele>132.318604</ele>
        <time>2012-03-25T07:54:30Z</time>
      </trkpt>
      <trkpt lat="43.32939" lon="-0.53812">
        <ele>131.837891</ele>
        <time>2012-03-25T07:54:44Z</time>
      </trkpt>
      <trkpt lat="43.33016" lon="-0.53741">
        <ele>130.876709</ele>
        <time>2012-03-25T07:54:59Z</time>
      </trkpt>
      <trkpt lat="43.33102" lon="-0.53684">
        <ele>130.876709</ele>
        <time>2012-03-25T07:55:14Z</time>
      </trkpt>
      <trkpt lat="43.33174" lon="-0.53604">
        <ele>130.876709</ele>
        <time>2012-03-25T07:55:30Z</time>
      </trkpt>
      <trkpt lat="43.33266" lon="-0.53484">
        <ele>130.876709</ele>
        <time>2012-03-25T07:55:52Z</time>
      </trkpt>
      <trkpt lat="43.33352" lon="-0.53371">
        <ele>132.318604</ele>
        <time>2012-03-25T07:56:16Z</time>
      </trkpt>
      <trkpt lat="43.33418" lon="-0.53283">
        <ele>134.241211</ele>
        <time>2012-03-25T07:56:37Z</time>
      </trkpt>
      <trkpt lat="43.33453" lon="-0.53238">
        <ele>135.683105</ele>
        <time>2012-03-25T07:56:50Z</time>
      </trkpt>
      <trkpt lat="43.33478" lon="-0.53241">
        <ele>136.644653</ele>
        <time>2012-03-25T07:57:00Z</time>
      </trkpt>
      <trkpt lat="43.33482" lon="-0.53234">
        <ele>137.605835</ele>
        <time>2012-03-25T07:57:03Z</time>
      </trkpt>
      <trkpt lat="43.33487" lon="-0.5323">
        <ele>138.086548</ele>
        <time>2012-03-25T07:57:06Z</time>
      </trkpt>
      <trkpt lat="43.33496" lon="-0.53216">
        <ele>139.047852</ele>
        <time>2012-03-25T07:57:13Z</time>
      </trkpt>
      <trkpt lat="43.33531" lon="-0.53202">
        <ele>140.970459</ele>
        <time>2012-03-25T07:57:31Z</time>
      </trkpt>
      <trkpt lat="43.33538" lon="-0.53192">
        <ele>142.412476</ele>
        <time>2012-03-25T07:57:36Z</time>
      </trkpt>
      <trkpt lat="43.33559" lon="-0.53169">
        <ele>144.335205</ele>
        <time>2012-03-25T07:57:50Z</time>
      </trkpt>
      <trkpt lat="43.33579" lon="-0.53176">
        <ele>146.257812</ele>
        <time>2012-03-25T07:58:02Z</time>
      </trkpt>
      <trkpt lat="43.33603" lon="-0.53182">
        <ele>148.18042</ele>
        <time>2012-03-25T07:58:16Z</time>
      </trkpt>
      <trkpt lat="43.33604" lon="-0.5318">
        <ele>148.661011</ele>
        <time>2012-03-25T07:58:17Z</time>
      </trkpt>
      <trkpt lat="43.33622" lon="-0.53161">
        <ele>151.064209</ele>
        <time>2012-03-25T07:58:31Z</time>
      </trkpt>
      <trkpt lat="43.33645" lon="-0.53159">
        <ele>153.467651</ele>
        <time>2012-03-25T07:58:47Z</time>
      </trkpt>
      <trkpt lat="43.33659" lon="-0.53137">
        <ele>157.312866</ele>
        <time>2012-03-25T07:59:00Z</time>
      </trkpt>
      <trkpt lat="43.3366" lon="-0.53136">
        <ele>157.312866</ele>
        <time>2012-03-25T07:59:01Z</time>
      </trkpt>
      <trkpt lat="43.33668" lon="-0.53124">
        <ele>158.27417</ele>
        <time>2012-03-25T07:59:09Z</time>
      </trkpt>
      <trkpt lat="43.33683" lon="-0.53126">
        <ele>162.119507</ele>
        <time>2012-03-25T07:59:19Z</time>
      </trkpt>
      <trkpt lat="43.33688" lon="-0.53128">
        <ele>163.080811</ele>
        <time>2012-03-25T07:59:22Z</time>
      </trkpt>
      <trkpt lat="43.33696" lon="-0.53133">
        <ele>164.042114</ele>
        <time>2012-03-25T07:59:28Z</time>
      </trkpt>
      <trkpt lat="43.33715" lon="-0.53152">
        <ele>166.445312</ele>
        <time>2012-03-25T07:59:43Z</time>
      </trkpt>
      <trkpt lat="43.33723" lon="-0.5316">
        <ele>166.926025</ele>
        <time>2012-03-25T07:59:49Z</time>
      </trkpt>
      <trkpt lat="43.33708" lon="-0.53171">
        <ele>165.484131</ele>
        <time>2012-03-25T07:59:58Z</time>
      </trkpt>
      <trkpt lat="43.33695" lon="-0.53174">
        <ele>164.042114</ele>
        <time>2012-03-25T08:00:03Z</time>
      </trkpt>
      <trkpt lat="43.33689" lon="-0.53187">
        <ele>163.080811</ele>
        <time>2012-03-25T08:00:06Z</time>
      </trkpt>
      <trkpt lat="43.33677" lon="-0.53191">
        <ele>161.158203</ele>
        <time>2012-03-25T08:00:09Z</time>
      </trkpt>
      <trkpt lat="43.33673" lon="-0.53227">
        <ele>159.235474</ele>
        <time>2012-03-25T08:00:18Z</time>
      </trkpt>
      <trkpt lat="43.33678" lon="-0.53236">
        <ele>160.196899</ele>
        <time>2012-03-25T08:00:21Z</time>
      </trkpt>
      <trkpt lat="43.3368" lon="-0.53239">
        <ele>160.196899</ele>
        <time>2012-03-25T08:00:22Z</time>
      </trkpt>
      <trkpt lat="43.33688" lon="-0.5328">
        <ele>160.67749</ele>
        <time>2012-03-25T08:00:34Z</time>
      </trkpt>
      <trkpt lat="43.3369" lon="-0.53292">
        <ele>159.716187</ele>
        <time>2012-03-25T08:00:38Z</time>
      </trkpt>
      <trkpt lat="43.33725" lon="-0.53311">
        <ele>162.600098</ele>
        <time>2012-03-25T08:00:55Z</time>
      </trkpt>
      <trkpt lat="43.33755" lon="-0.53303">
        <ele>165.484131</ele>
        <time>2012-03-25T08:01:11Z</time>
      </trkpt>
      <trkpt lat="43.3378" lon="-0.53309">
        <ele>169.329468</ele>
        <time>2012-03-25T08:01:24Z</time>
      </trkpt>
      <trkpt lat="43.33807" lon="-0.53305">
        <ele>171.732666</ele>
        <time>2012-03-25T08:01:39Z</time>
      </trkpt>
      <trkpt lat="43.33824" lon="-0.53304">
        <ele>175.09729</ele>
        <time>2012-03-25T08:01:48Z</time>
      </trkpt>
      <trkpt lat="43.33826" lon="-0.53304">
        <ele>175.09729</ele>
        <time>2012-03-25T08:01:49Z</time>
      </trkpt>
      <trkpt lat="43.33848" lon="-0.53303">
        <ele>178.942627</ele>
        <time>2012-03-25T08:02:02Z</time>
      </trkpt>
      <trkpt lat="43.33874" lon="-0.53306">
        <ele>179.903809</ele>
        <time>2012-03-25T08:02:17Z</time>
      </trkpt>
      <trkpt lat="43.3391" lon="-0.53311">
        <ele>182.787842</ele>
        <time>2012-03-25T08:02:33Z</time>
      </trkpt>
      <trkpt lat="43.3394" lon="-0.53319">
        <ele>183.749023</ele>
        <time>2012-03-25T08:02:47Z</time>
      </trkpt>
      <trkpt lat="43.3396" lon="-0.53308">
        <ele>187.11377</ele>
        <time>2012-03-25T08:02:57Z</time>
      </trkpt>
      <trkpt lat="43.33962" lon="-0.53307">
        <ele>187.59436</ele>
        <time>2012-03-25T08:02:58Z</time>
      </trkpt>
      <trkpt lat="43.33982" lon="-0.5331">
        <ele>189.516968</ele>
        <time>2012-03-25T08:03:10Z</time>
      </trkpt>
      <trkpt lat="43.34017" lon="-0.53313">
        <ele>192.881714</ele>
        <time>2012-03-25T08:03:28Z</time>
      </trkpt>
      <trkpt lat="43.34041" lon="-0.53309">
        <ele>195.284912</ele>
        <time>2012-03-25T08:03:41Z</time>
      </trkpt>
      <trkpt lat="43.34065" lon="-0.53283">
        <ele>198.168945</ele>
        <time>2012-03-25T08:03:57Z</time>
      </trkpt>
      <trkpt lat="43.34085" lon="-0.53267">
        <ele>201.052856</ele>
        <time>2012-03-25T08:04:11Z</time>
      </trkpt>
      <trkpt lat="43.34105" lon="-0.53248">
        <ele>204.41748</ele>
        <time>2012-03-25T08:04:26Z</time>
      </trkpt>
      <trkpt lat="43.3412" lon="-0.53232">
        <ele>206.820679</ele>
        <time>2012-03-25T08:04:39Z</time>
      </trkpt>
      <trkpt lat="43.3413" lon="-0.53211">
        <ele>210.185425</ele>
        <time>2012-03-25T08:04:51Z</time>
      </trkpt>
      <trkpt lat="43.3414" lon="-0.53187">
        <ele>212.108032</ele>
        <time>2012-03-25T08:05:05Z</time>
      </trkpt>
      <trkpt lat="43.34139" lon="-0.53183">
        <ele>212.588623</ele>
        <time>2012-03-25T08:05:07Z</time>
      </trkpt>
      <trkpt lat="43.34134" lon="-0.5318">
        <ele>212.588623</ele>
        <time>2012-03-25T08:05:11Z</time>
      </trkpt>
      <trkpt lat="43.34088" lon="-0.53178">
        <ele>212.588623</ele>
        <time>2012-03-25T08:05:27Z</time>
      </trkpt>
      <trkpt lat="43.34037" lon="-0.5318">
        <ele>210.185425</ele>
        <time>2012-03-25T08:05:37Z</time>
      </trkpt>
      <trkpt lat="43.33996" lon="-0.53166">
        <ele>208.743408</ele>
        <time>2012-03-25T08:05:44Z</time>
      </trkpt>
      <trkpt lat="43.33955" lon="-0.53097">
        <ele>204.898071</ele>
        <time>2012-03-25T08:05:53Z</time>
      </trkpt>
      <trkpt lat="43.33954" lon="-0.53076">
        <ele>204.41748</ele>
        <time>2012-03-25T08:05:55Z</time>
      </trkpt>
      <trkpt lat="43.33954" lon="-0.53056">
        <ele>204.41748</ele>
        <time>2012-03-25T08:05:57Z</time>
      </trkpt>
      <trkpt lat="43.33945" lon="-0.52948">
        <ele>203.93689</ele>
        <time>2012-03-25T08:06:10Z</time>
      </trkpt>
      <trkpt lat="43.33957" lon="-0.52852">
        <ele>204.898071</ele>
        <time>2012-03-25T08:06:24Z</time>
      </trkpt>
      <trkpt lat="43.33974" lon="-0.52768">
        <ele>207.782104</ele>
        <time>2012-03-25T08:06:40Z</time>
      </trkpt>
      <trkpt lat="43.34001" lon="-0.52688">
        <ele>209.704834</ele>
        <time>2012-03-25T08:06:58Z</time>
      </trkpt>
      <trkpt lat="43.34008" lon="-0.52669">
        <ele>208.262817</ele>
        <time>2012-03-25T08:07:01Z</time>
      </trkpt>
      <trkpt lat="43.34049" lon="-0.52622">
        <ele>207.301392</ele>
        <time>2012-03-25T08:07:10Z</time>
      </trkpt>
      <trkpt lat="43.34087" lon="-0.52604">
        <ele>205.859497</ele>
        <time>2012-03-25T08:07:16Z</time>
      </trkpt>
      <trkpt lat="43.34154" lon="-0.52551">
        <ele>207.301392</ele>
        <time>2012-03-25T08:07:30Z</time>
      </trkpt>
      <trkpt lat="43.34153" lon="-0.52525">
        <ele>206.820679</ele>
        <time>2012-03-25T08:07:35Z</time>
      </trkpt>
      <trkpt lat="43.34148" lon="-0.52506">
        <ele>206.340088</ele>
        <time>2012-03-25T08:07:38Z</time>
      </trkpt>
      <trkpt lat="43.34126" lon="-0.52449">
        <ele>207.782104</ele>
        <time>2012-03-25T08:07:47Z</time>
      </trkpt>
      <trkpt lat="43.341" lon="-0.52379">
        <ele>208.743408</ele>
        <time>2012-03-25T08:07:59Z</time>
      </trkpt>
      <trkpt lat="43.34081" lon="-0.5231">
        <ele>207.782104</ele>
        <time>2012-03-25T08:08:10Z</time>
      </trkpt>
      <trkpt lat="43.34066" lon="-0.52284">
        <ele>206.820679</ele>
        <time>2012-03-25T08:08:14Z</time>
      </trkpt>
      <trkpt lat="43.34052" lon="-0.5227">
        <ele>205.859497</ele>
        <time>2012-03-25T08:08:17Z</time>
      </trkpt>
      <trkpt lat="43.34046" lon="-0.52263">
        <ele>205.378784</ele>
        <time>2012-03-25T08:08:19Z</time>
      </trkpt>
      <trkpt lat="43.34025" lon="-0.52214">
        <ele>208.262817</ele>
        <time>2012-03-25T08:08:33Z</time>
      </trkpt>
      <trkpt lat="43.34012" lon="-0.52184">
        <ele>210.666016</ele>
        <time>2012-03-25T08:08:44Z</time>
      </trkpt>
      <trkpt lat="43.33994" lon="-0.52161">
        <ele>214.03064</ele>
        <time>2012-03-25T08:08:56Z</time>
      </trkpt>
      <trkpt lat="43.3395" lon="-0.52152">
        <ele>216.914673</ele>
        <time>2012-03-25T08:09:12Z</time>
      </trkpt>
      <trkpt lat="43.33896" lon="-0.52121">
        <ele>218.356567</ele>
        <time>2012-03-25T08:09:31Z</time>
      </trkpt>
      <trkpt lat="43.33873" lon="-0.52089">
        <ele>217.395386</ele>
        <time>2012-03-25T08:09:37Z</time>
      </trkpt>
      <trkpt lat="43.3383" lon="-0.52035">
        <ele>215.953247</ele>
        <time>2012-03-25T08:09:47Z</time>
      </trkpt>
      <trkpt lat="43.3382" lon="-0.52004">
        <ele>217.395386</ele>
        <time>2012-03-25T08:09:52Z</time>
      </trkpt>
      <trkpt lat="43.3381" lon="-0.51914">
        <ele>217.395386</ele>
        <time>2012-03-25T08:10:05Z</time>
      </trkpt>
      <trkpt lat="43.33806" lon="-0.51904">
        <ele>217.395386</ele>
        <time>2012-03-25T08:10:07Z</time>
      </trkpt>
      <trkpt lat="43.33778" lon="-0.5185">
        <ele>214.991943</ele>
        <time>2012-03-25T08:10:16Z</time>
      </trkpt>
      <trkpt lat="43.33775" lon="-0.51844">
        <ele>214.991943</ele>
        <time>2012-03-25T08:10:17Z</time>
      </trkpt>
      <trkpt lat="43.33741" lon="-0.51795">
        <ele>213.550049</ele>
        <time>2012-03-25T08:10:26Z</time>
      </trkpt>
      <trkpt lat="43.33676" lon="-0.51718">
        <ele>211.146729</ele>
        <time>2012-03-25T08:10:39Z</time>
      </trkpt>
      <trkpt lat="43.33636" lon="-0.51692">
        <ele>209.704834</ele>
        <time>2012-03-25T08:10:45Z</time>
      </trkpt>
      <trkpt lat="43.3361" lon="-0.51671">
        <ele>208.262817</ele>
        <time>2012-03-25T08:10:49Z</time>
      </trkpt>
      <trkpt lat="43.33605" lon="-0.51666">
        <ele>208.743408</ele>
        <time>2012-03-25T08:10:50Z</time>
      </trkpt>
      <trkpt lat="43.33559" lon="-0.51645">
        <ele>205.378784</ele>
        <time>2012-03-25T08:10:57Z</time>
      </trkpt>
      <trkpt lat="43.33541" lon="-0.51639">
        <ele>204.41748</ele>
        <time>2012-03-25T08:10:59Z</time>
      </trkpt>
      <trkpt lat="43.33502" lon="-0.51633">
        <ele>201.052856</ele>
        <time>2012-03-25T08:11:04Z</time>
      </trkpt>
      <trkpt lat="43.33495" lon="-0.51628">
        <ele>199.61084</ele>
        <time>2012-03-25T08:11:05Z</time>
      </trkpt>
      <trkpt lat="43.33473" lon="-0.51611">
        <ele>197.20752</ele>
        <time>2012-03-25T08:11:08Z</time>
      </trkpt>
      <trkpt lat="43.33437" lon="-0.51598">
        <ele>193.843018</ele>
        <time>2012-03-25T08:11:13Z</time>
      </trkpt>
      <trkpt lat="43.33409" lon="-0.51596">
        <ele>190.478394</ele>
        <time>2012-03-25T08:11:17Z</time>
      </trkpt>
      <trkpt lat="43.33395" lon="-0.51591">
        <ele>189.997681</ele>
        <time>2012-03-25T08:11:19Z</time>
      </trkpt>
      <trkpt lat="43.3334" lon="-0.51574">
        <ele>190.958984</ele>
        <time>2012-03-25T08:11:31Z</time>
      </trkpt>
      <trkpt lat="43.33318" lon="-0.51566">
        <ele>194.32373</ele>
        <time>2012-03-25T08:11:40Z</time>
      </trkpt>
      <trkpt lat="43.33292" lon="-0.51571">
        <ele>197.20752</ele>
        <time>2012-03-25T08:11:54Z</time>
      </trkpt>
      <trkpt lat="43.33279" lon="-0.5158">
        <ele>200.572266</ele>
        <time>2012-03-25T08:12:05Z</time>
      </trkpt>
      <trkpt lat="43.33264" lon="-0.51596">
        <ele>203.93689</ele>
        <time>2012-03-25T08:12:19Z</time>
      </trkpt>
      <trkpt lat="43.33253" lon="-0.5161">
        <ele>205.859497</ele>
        <time>2012-03-25T08:12:31Z</time>
      </trkpt>
      <trkpt lat="43.33241" lon="-0.51618">
        <ele>208.262817</ele>
        <time>2012-03-25T08:12:43Z</time>
      </trkpt>
      <trkpt lat="43.3323" lon="-0.51629">
        <ele>210.666016</ele>
        <time>2012-03-25T08:12:58Z</time>
      </trkpt>
      <trkpt lat="43.33221" lon="-0.51637">
        <ele>212.108032</ele>
        <time>2012-03-25T08:13:09Z</time>
      </trkpt>
      <trkpt lat="43.33212" lon="-0.51643">
        <ele>213.069336</ele>
        <time>2012-03-25T08:13:17Z</time>
      </trkpt>
      <trkpt lat="43.33212" lon="-0.51647">
        <ele>212.108032</ele>
        <time>2012-03-25T08:13:20Z</time>
      </trkpt>
      <trkpt lat="43.33237" lon="-0.51669">
        <ele>212.588623</ele>
        <time>2012-03-25T08:13:32Z</time>
      </trkpt>
      <trkpt lat="43.33285" lon="-0.51711">
        <ele>213.069336</ele>
        <time>2012-03-25T08:13:46Z</time>
      </trkpt>
      <trkpt lat="43.33334" lon="-0.51759">
        <ele>211.627441</ele>
        <time>2012-03-25T08:13:58Z</time>
      </trkpt>
      <trkpt lat="43.33342" lon="-0.51772">
        <ele>209.704834</ele>
        <time>2012-03-25T08:14:00Z</time>
      </trkpt>
      <trkpt lat="43.33355" lon="-0.51804">
        <ele>210.185425</ele>
        <time>2012-03-25T08:14:05Z</time>
      </trkpt>
      <trkpt lat="43.33365" lon="-0.51846">
        <ele>210.185425</ele>
        <time>2012-03-25T08:14:12Z</time>
      </trkpt>
      <trkpt lat="43.33368" lon="-0.51858">
        <ele>209.704834</ele>
        <time>2012-03-25T08:14:14Z</time>
      </trkpt>
      <trkpt lat="43.33374" lon="-0.51884">
        <ele>210.185425</ele>
        <time>2012-03-25T08:14:18Z</time>
      </trkpt>
      <trkpt lat="43.33369" lon="-0.51936">
        <ele>211.627441</ele>
        <time>2012-03-25T08:14:29Z</time>
      </trkpt>
      <trkpt lat="43.33365" lon="-0.51996">
        <ele>213.069336</ele>
        <time>2012-03-25T08:14:43Z</time>
      </trkpt>
      <trkpt lat="43.3338" lon="-0.5207">
        <ele>211.627441</ele>
        <time>2012-03-25T08:14:54Z</time>
      </trkpt>
      <trkpt lat="43.33387" lon="-0.52163">
        <ele>210.185425</ele>
        <time>2012-03-25T08:15:07Z</time>
      </trkpt>
      <trkpt lat="43.33391" lon="-0.52202">
        <ele>211.146729</ele>
        <time>2012-03-25T08:15:13Z</time>
      </trkpt>
      <trkpt lat="43.33392" lon="-0.52286">
        <ele>212.108032</ele>
        <time>2012-03-25T08:15:27Z</time>
      </trkpt>
      <trkpt lat="43.33392" lon="-0.52289">
        <ele>211.627441</ele>
        <time>2012-03-25T08:15:28Z</time>
      </trkpt>
      <trkpt lat="43.3339" lon="-0.52339">
        <ele>212.588623</ele>
        <time>2012-03-25T08:15:41Z</time>
      </trkpt>
      <trkpt lat="43.33387" lon="-0.52358">
        <ele>214.991943</ele>
        <time>2012-03-25T08:15:49Z</time>
      </trkpt>
      <trkpt lat="43.33386" lon="-0.52364">
        <ele>216.43396</ele>
        <time>2012-03-25T08:15:52Z</time>
      </trkpt>
      <trkpt lat="43.33382" lon="-0.52378">
        <ele>219.798584</ele>
        <time>2012-03-25T08:16:00Z</time>
      </trkpt>
      <trkpt lat="43.33379" lon="-0.52389">
        <ele>221.721191</ele>
        <time>2012-03-25T08:16:11Z</time>
      </trkpt>
      <trkpt lat="43.33371" lon="-0.52405">
        <ele>225.085938</ele>
        <time>2012-03-25T08:16:27Z</time>
      </trkpt>
      <trkpt lat="43.33368" lon="-0.52409">
        <ele>226.047119</ele>
        <time>2012-03-25T08:16:31Z</time>
      </trkpt>
      <trkpt lat="43.33364" lon="-0.52414">
        <ele>227.969727</ele>
        <time>2012-03-25T08:16:37Z</time>
      </trkpt>
      <trkpt lat="43.33357" lon="-0.52415">
        <ele>229.411743</ele>
        <time>2012-03-25T08:16:53Z</time>
      </trkpt>
      <trkpt lat="43.33343" lon="-0.52378">
        <ele>231.814941</ele>
        <time>2012-03-25T08:17:13Z</time>
      </trkpt>
      <trkpt lat="43.33331" lon="-0.52343">
        <ele>235.660278</ele>
        <time>2012-03-25T08:17:31Z</time>
      </trkpt>
      <trkpt lat="43.33321" lon="-0.52315">
        <ele>239.024902</ele>
        <time>2012-03-25T08:17:46Z</time>
      </trkpt>
      <trkpt lat="43.33314" lon="-0.5229">
        <ele>241.908936</ele>
        <time>2012-03-25T08:17:59Z</time>
      </trkpt>
      <trkpt lat="43.33304" lon="-0.52261">
        <ele>245.273438</ele>
        <time>2012-03-25T08:18:13Z</time>
      </trkpt>
      <trkpt lat="43.33288" lon="-0.52217">
        <ele>248.157593</ele>
        <time>2012-03-25T08:18:32Z</time>
      </trkpt>
      <trkpt lat="43.33279" lon="-0.52167">
        <ele>250.0802</ele>
        <time>2012-03-25T08:18:48Z</time>
      </trkpt>
      <trkpt lat="43.33274" lon="-0.52124">
        <ele>250.0802</ele>
        <time>2012-03-25T08:18:58Z</time>
      </trkpt>
      <trkpt lat="43.33275" lon="-0.52102">
        <ele>249.599487</ele>
        <time>2012-03-25T08:19:02Z</time>
      </trkpt>
      <trkpt lat="43.33278" lon="-0.52062">
        <ele>248.157593</ele>
        <time>2012-03-25T08:19:08Z</time>
      </trkpt>
      <trkpt lat="43.3328" lon="-0.5205">
        <ele>247.676758</ele>
        <time>2012-03-25T08:19:10Z</time>
      </trkpt>
      <trkpt lat="43.33277" lon="-0.51993">
        <ele>245.75415</ele>
        <time>2012-03-25T08:19:18Z</time>
      </trkpt>
      <trkpt lat="43.33272" lon="-0.51953">
        <ele>244.792847</ele>
        <time>2012-03-25T08:19:24Z</time>
      </trkpt>
      <trkpt lat="43.33266" lon="-0.51924">
        <ele>245.273438</ele>
        <time>2012-03-25T08:19:29Z</time>
      </trkpt>
      <trkpt lat="43.33259" lon="-0.51891">
        <ele>245.273438</ele>
        <time>2012-03-25T08:19:34Z</time>
      </trkpt>
      <trkpt lat="43.33255" lon="-0.51879">
        <ele>245.75415</ele>
        <time>2012-03-25T08:19:36Z</time>
      </trkpt>
      <trkpt lat="43.33249" lon="-0.51853">
        <ele>244.792847</ele>
        <time>2012-03-25T08:19:40Z</time>
      </trkpt>
      <trkpt lat="43.33231" lon="-0.51796">
        <ele>246.234863</ele>
        <time>2012-03-25T08:19:49Z</time>
      </trkpt>
      <trkpt lat="43.33194" lon="-0.51759">
        <ele>244.312256</ele>
        <time>2012-03-25T08:19:58Z</time>
      </trkpt>
      <trkpt lat="43.33178" lon="-0.51747">
        <ele>241.428223</ele>
        <time>2012-03-25T08:20:01Z</time>
      </trkpt>
      <trkpt lat="43.33163" lon="-0.51739">
        <ele>237.102295</ele>
        <time>2012-03-25T08:20:04Z</time>
      </trkpt>
      <trkpt lat="43.33159" lon="-0.51737">
        <ele>237.102295</ele>
        <time>2012-03-25T08:20:05Z</time>
      </trkpt>
      <trkpt lat="43.33146" lon="-0.51729">
        <ele>232.776489</ele>
        <time>2012-03-25T08:20:09Z</time>
      </trkpt>
      <trkpt lat="43.33135" lon="-0.51717">
        <ele>230.85376</ele>
        <time>2012-03-25T08:20:12Z</time>
      </trkpt>
      <trkpt lat="43.33126" lon="-0.517">
        <ele>234.218384</ele>
        <time>2012-03-25T08:20:18Z</time>
      </trkpt>
      <trkpt lat="43.33118" lon="-0.51691">
        <ele>235.660278</ele>
        <time>2012-03-25T08:20:24Z</time>
      </trkpt>
      <trkpt lat="43.33113" lon="-0.51688">
        <ele>237.102295</ele>
        <time>2012-03-25T08:20:27Z</time>
      </trkpt>
      <trkpt lat="43.33097" lon="-0.51673">
        <ele>240.467041</ele>
        <time>2012-03-25T08:20:40Z</time>
      </trkpt>
      <trkpt lat="43.33087" lon="-0.51659">
        <ele>243.831543</ele>
        <time>2012-03-25T08:20:51Z</time>
      </trkpt>
      <trkpt lat="43.33068" lon="-0.51633">
        <ele>246.715454</ele>
        <time>2012-03-25T08:21:09Z</time>
      </trkpt>
      <trkpt lat="43.33032" lon="-0.51599">
        <ele>248.157593</ele>
        <time>2012-03-25T08:21:29Z</time>
      </trkpt>
      <trkpt lat="43.32997" lon="-0.51557">
        <ele>252.002808</ele>
        <time>2012-03-25T08:21:46Z</time>
      </trkpt>
      <trkpt lat="43.3296" lon="-0.51509">
        <ele>253.925415</ele>
        <time>2012-03-25T08:22:08Z</time>
      </trkpt>
      <trkpt lat="43.32934" lon="-0.51475">
        <ele>257.290039</ele>
        <time>2012-03-25T08:22:22Z</time>
      </trkpt>
      <trkpt lat="43.32898" lon="-0.51443">
        <ele>260.17395</ele>
        <time>2012-03-25T08:22:40Z</time>
      </trkpt>
      <trkpt lat="43.32855" lon="-0.51423">
        <ele>260.17395</ele>
        <time>2012-03-25T08:22:55Z</time>
      </trkpt>
      <trkpt lat="43.32851" lon="-0.5144">
        <ele>259.693359</ele>
        <time>2012-03-25T08:23:02Z</time>
      </trkpt>
      <trkpt lat="43.32859" lon="-0.51447">
        <ele>259.212646</ele>
        <time>2012-03-25T08:23:15Z</time>
      </trkpt>
      <trkpt lat="43.32863" lon="-0.51451">
        <ele>260.17395</ele>
        <time>2012-03-25T08:23:21Z</time>
      </trkpt>
      <trkpt lat="43.32862" lon="-0.51462">
        <ele>260.17395</ele>
        <time>2012-03-25T08:23:36Z</time>
      </trkpt>
      <trkpt lat="43.32863" lon="-0.51464">
        <ele>259.693359</ele>
        <time>2012-03-25T08:23:49Z</time>
      </trkpt>
      <trkpt lat="43.32862" lon="-0.51467">
        <ele>261.135254</ele>
        <time>2012-03-25T08:24:09Z</time>
      </trkpt>
      <trkpt lat="43.3286" lon="-0.51463">
        <ele>260.17395</ele>
        <time>2012-03-25T08:24:19Z</time>
      </trkpt>
      <trkpt lat="43.32858" lon="-0.5145">
        <ele>259.693359</ele>
        <time>2012-03-25T08:24:34Z</time>
      </trkpt>
      <trkpt lat="43.32856" lon="-0.5145">
        <ele>259.212646</ele>
        <time>2012-03-25T08:24:42Z</time>
      </trkpt>
      <trkpt lat="43.3284" lon="-0.51434">
        <ele>258.731934</ele>
        <time>2012-03-25T08:24:56Z</time>
      </trkpt>
      <trkpt lat="43.32841" lon="-0.51434">
        <ele>258.251343</ele>
        <time>2012-03-25T08:25:26Z</time>
      </trkpt>
      <trkpt lat="43.32822" lon="-0.51415">
        <ele>258.251343</ele>
        <time>2012-03-25T08:25:39Z</time>
      </trkpt>
      <trkpt lat="43.32802" lon="-0.51393">
        <ele>255.848022</ele>
        <time>2012-03-25T08:25:48Z</time>
      </trkpt>
      <trkpt lat="43.32763" lon="-0.51348">
        <ele>254.886597</ele>
        <time>2012-03-25T08:25:59Z</time>
      </trkpt>
      <trkpt lat="43.32734" lon="-0.51319">
        <ele>255.848022</ele>
        <time>2012-03-25T08:26:07Z</time>
      </trkpt>
      <trkpt lat="43.32679" lon="-0.51274">
        <ele>256.328735</ele>
        <time>2012-03-25T08:26:23Z</time>
      </trkpt>
      <trkpt lat="43.32685" lon="-0.51246">
        <ele>258.251343</ele>
        <time>2012-03-25T08:26:31Z</time>
      </trkpt>
      <trkpt lat="43.32693" lon="-0.51222">
        <ele>257.770752</ele>
        <time>2012-03-25T08:26:37Z</time>
      </trkpt>
      <trkpt lat="43.32688" lon="-0.51167">
        <ele>253.444702</ele>
        <time>2012-03-25T08:26:44Z</time>
      </trkpt>
      <trkpt lat="43.32686" lon="-0.51158">
        <ele>252.483398</ele>
        <time>2012-03-25T08:26:45Z</time>
      </trkpt>
      <trkpt lat="43.32685" lon="-0.51144">
        <ele>250.560791</ele>
        <time>2012-03-25T08:26:47Z</time>
      </trkpt>
      <trkpt lat="43.32689" lon="-0.51135">
        <ele>249.118774</ele>
        <time>2012-03-25T08:26:49Z</time>
      </trkpt>
      <trkpt lat="43.32696" lon="-0.51132">
        <ele>249.118774</ele>
        <time>2012-03-25T08:26:51Z</time>
      </trkpt>
      <trkpt lat="43.32743" lon="-0.51116">
        <ele>252.483398</ele>
        <time>2012-03-25T08:27:09Z</time>
      </trkpt>
      <trkpt lat="43.32773" lon="-0.51101">
        <ele>255.36731</ele>
        <time>2012-03-25T08:27:27Z</time>
      </trkpt>
      <trkpt lat="43.32806" lon="-0.51082">
        <ele>258.731934</ele>
        <time>2012-03-25T08:27:48Z</time>
      </trkpt>
      <trkpt lat="43.32824" lon="-0.51073">
        <ele>262.577148</ele>
        <time>2012-03-25T08:28:00Z</time>
      </trkpt>
      <trkpt lat="43.32849" lon="-0.51064">
        <ele>265.461304</ele>
        <time>2012-03-25T08:28:16Z</time>
      </trkpt>
      <trkpt lat="43.32859" lon="-0.5106">
        <ele>267.383911</ele>
        <time>2012-03-25T08:28:23Z</time>
      </trkpt>
      <trkpt lat="43.32891" lon="-0.51075">
        <ele>268.345093</ele>
        <time>2012-03-25T08:28:39Z</time>
      </trkpt>
      <trkpt lat="43.32969" lon="-0.5111">
        <ele>268.345093</ele>
        <time>2012-03-25T08:29:02Z</time>
      </trkpt>
      <trkpt lat="43.33045" lon="-0.51141">
        <ele>265.461304</ele>
        <time>2012-03-25T08:29:18Z</time>
      </trkpt>
      <trkpt lat="43.33079" lon="-0.51168">
        <ele>261.615967</ele>
        <time>2012-03-25T08:29:25Z</time>
      </trkpt>
      <trkpt lat="43.33092" lon="-0.51178">
        <ele>259.212646</ele>
        <time>2012-03-25T08:29:28Z</time>
      </trkpt>
      <trkpt lat="43.33107" lon="-0.51155">
        <ele>256.328735</ele>
        <time>2012-03-25T08:29:33Z</time>
      </trkpt>
      <trkpt lat="43.33111" lon="-0.51135">
        <ele>253.444702</ele>
        <time>2012-03-25T08:29:36Z</time>
      </trkpt>
      <trkpt lat="43.33111" lon="-0.51129">
        <ele>252.002808</ele>
        <time>2012-03-25T08:29:37Z</time>
      </trkpt>
      <trkpt lat="43.33111" lon="-0.51116">
        <ele>250.560791</ele>
        <time>2012-03-25T08:29:39Z</time>
      </trkpt>
      <trkpt lat="43.33123" lon="-0.51091">
        <ele>246.715454</ele>
        <time>2012-03-25T08:29:44Z</time>
      </trkpt>
      <trkpt lat="43.33127" lon="-0.51091">
        <ele>245.75415</ele>
        <time>2012-03-25T08:29:45Z</time>
      </trkpt>
      <trkpt lat="43.33139" lon="-0.51097">
        <ele>243.35083</ele>
        <time>2012-03-25T08:29:49Z</time>
      </trkpt>
      <trkpt lat="43.33159" lon="-0.51112">
        <ele>238.544312</ele>
        <time>2012-03-25T08:29:53Z</time>
      </trkpt>
      <trkpt lat="43.33165" lon="-0.51116">
        <ele>237.102295</ele>
        <time>2012-03-25T08:29:54Z</time>
      </trkpt>
      <trkpt lat="43.33181" lon="-0.51123">
        <ele>235.179688</ele>
        <time>2012-03-25T08:29:57Z</time>
      </trkpt>
      <trkpt lat="43.33186" lon="-0.51125">
        <ele>233.25708</ele>
        <time>2012-03-25T08:29:58Z</time>
      </trkpt>
      <trkpt lat="43.33218" lon="-0.51135">
        <ele>230.373047</ele>
        <time>2012-03-25T08:30:03Z</time>
      </trkpt>
      <trkpt lat="43.3325" lon="-0.51145">
        <ele>226.527832</ele>
        <time>2012-03-25T08:30:07Z</time>
      </trkpt>
      <trkpt lat="43.33278" lon="-0.51154">
        <ele>224.605225</ele>
        <time>2012-03-25T08:30:11Z</time>
      </trkpt>
      <trkpt lat="43.33285" lon="-0.51157">
        <ele>224.124512</ele>
        <time>2012-03-25T08:30:12Z</time>
      </trkpt>
      <trkpt lat="43.33301" lon="-0.51168">
        <ele>221.721191</ele>
        <time>2012-03-25T08:30:15Z</time>
      </trkpt>
      <trkpt lat="43.33306" lon="-0.51172">
        <ele>221.240601</ele>
        <time>2012-03-25T08:30:16Z</time>
      </trkpt>
      <trkpt lat="43.33324" lon="-0.51168">
        <ele>219.317993</ele>
        <time>2012-03-25T08:30:21Z</time>
      </trkpt>
      <trkpt lat="43.33329" lon="-0.51161">
        <ele>216.914673</ele>
        <time>2012-03-25T08:30:23Z</time>
      </trkpt>
      <trkpt lat="43.33333" lon="-0.51149">
        <ele>215.472656</ele>
        <time>2012-03-25T08:30:26Z</time>
      </trkpt>
      <trkpt lat="43.33334" lon="-0.51145">
        <ele>214.991943</ele>
        <time>2012-03-25T08:30:27Z</time>
      </trkpt>
      <trkpt lat="43.33333" lon="-0.51131">
        <ele>212.588623</ele>
        <time>2012-03-25T08:30:30Z</time>
      </trkpt>
      <trkpt lat="43.33334" lon="-0.51075">
        <ele>208.262817</ele>
        <time>2012-03-25T08:30:37Z</time>
      </trkpt>
      <trkpt lat="43.33333" lon="-0.51049">
        <ele>203.93689</ele>
        <time>2012-03-25T08:30:40Z</time>
      </trkpt>
      <trkpt lat="43.33328" lon="-0.51013">
        <ele>200.091675</ele>
        <time>2012-03-25T08:30:44Z</time>
      </trkpt>
      <trkpt lat="43.33324" lon="-0.50984">
        <ele>196.246338</ele>
        <time>2012-03-25T08:30:47Z</time>
      </trkpt>
      <trkpt lat="43.3331" lon="-0.50955">
        <ele>192.401123</ele>
        <time>2012-03-25T08:30:51Z</time>
      </trkpt>
      <trkpt lat="43.33292" lon="-0.50927">
        <ele>188.075073</ele>
        <time>2012-03-25T08:30:55Z</time>
      </trkpt>
      <trkpt lat="43.33289" lon="-0.5092">
        <ele>187.59436</ele>
        <time>2012-03-25T08:30:56Z</time>
      </trkpt>
      <trkpt lat="43.33286" lon="-0.50902">
        <ele>184.229858</ele>
        <time>2012-03-25T08:31:00Z</time>
      </trkpt>
      <trkpt lat="43.33288" lon="-0.50898">
        <ele>182.307129</ele>
        <time>2012-03-25T08:31:03Z</time>
      </trkpt>
      <trkpt lat="43.33288" lon="-0.50899">
        <ele>183.268433</ele>
        <time>2012-03-25T08:31:05Z</time>
      </trkpt>
      <trkpt lat="43.33281" lon="-0.50899">
        <ele>184.710571</ele>
        <time>2012-03-25T08:31:15Z</time>
      </trkpt>
      <trkpt lat="43.33274" lon="-0.50857">
        <ele>182.787842</ele>
        <time>2012-03-25T08:31:26Z</time>
      </trkpt>
      <trkpt lat="43.33271" lon="-0.50837">
        <ele>180.865234</ele>
        <time>2012-03-25T08:31:30Z</time>
      </trkpt>
      <trkpt lat="43.33261" lon="-0.50815">
        <ele>177.02002</ele>
        <time>2012-03-25T08:31:34Z</time>
      </trkpt>
      <trkpt lat="43.33242" lon="-0.50797">
        <ele>173.655273</ele>
        <time>2012-03-25T08:31:37Z</time>
      </trkpt>
      <trkpt lat="43.3323" lon="-0.50782">
        <ele>173.655273</ele>
        <time>2012-03-25T08:31:39Z</time>
      </trkpt>
      <trkpt lat="43.3322" lon="-0.50768">
        <ele>173.655273</ele>
        <time>2012-03-25T08:31:41Z</time>
      </trkpt>
      <trkpt lat="43.3321" lon="-0.50733">
        <ele>175.09729</ele>
        <time>2012-03-25T08:31:47Z</time>
      </trkpt>
      <trkpt lat="43.33221" lon="-0.5071">
        <ele>173.174683</ele>
        <time>2012-03-25T08:31:52Z</time>
      </trkpt>
      <trkpt lat="43.33227" lon="-0.50677">
        <ele>166.926025</ele>
        <time>2012-03-25T08:31:57Z</time>
      </trkpt>
      <trkpt lat="43.33229" lon="-0.50664">
        <ele>163.561523</ele>
        <time>2012-03-25T08:31:59Z</time>
      </trkpt>
      <trkpt lat="43.3323" lon="-0.50649">
        <ele>159.716187</ele>
        <time>2012-03-25T08:32:02Z</time>
      </trkpt>
      <trkpt lat="43.33231" lon="-0.50644">
        <ele>159.716187</ele>
        <time>2012-03-25T08:32:03Z</time>
      </trkpt>
      <trkpt lat="43.33234" lon="-0.5063">
        <ele>157.793579</ele>
        <time>2012-03-25T08:32:07Z</time>
      </trkpt>
      <trkpt lat="43.33239" lon="-0.50627">
        <ele>156.832153</ele>
        <time>2012-03-25T08:32:09Z</time>
      </trkpt>
      <trkpt lat="43.33247" lon="-0.50632">
        <ele>155.870972</ele>
        <time>2012-03-25T08:32:11Z</time>
      </trkpt>
      <trkpt lat="43.33259" lon="-0.5064">
        <ele>155.390259</ele>
        <time>2012-03-25T08:32:13Z</time>
      </trkpt>
      <trkpt lat="43.33283" lon="-0.50648">
        <ele>154.428955</ele>
        <time>2012-03-25T08:32:16Z</time>
      </trkpt>
      <trkpt lat="43.33314" lon="-0.50641">
        <ele>149.141602</ele>
        <time>2012-03-25T08:32:20Z</time>
      </trkpt>
      <trkpt lat="43.33322" lon="-0.50635">
        <ele>148.661011</ele>
        <time>2012-03-25T08:32:21Z</time>
      </trkpt>
      <trkpt lat="43.33362" lon="-0.50604">
        <ele>140.970459</ele>
        <time>2012-03-25T08:32:26Z</time>
      </trkpt>
      <trkpt lat="43.33371" lon="-0.50598">
        <ele>141.45105</ele>
        <time>2012-03-25T08:32:27Z</time>
      </trkpt>
      <trkpt lat="43.33413" lon="-0.50565">
        <ele>139.047852</ele>
        <time>2012-03-25T08:32:32Z</time>
      </trkpt>
      <trkpt lat="43.33444" lon="-0.50546">
        <ele>136.16394</ele>
        <time>2012-03-25T08:32:37Z</time>
      </trkpt>
      <trkpt lat="43.33527" lon="-0.50508">
        <ele>135.683105</ele>
        <time>2012-03-25T08:32:51Z</time>
      </trkpt>
      <trkpt lat="43.33547" lon="-0.50499">
        <ele>136.16394</ele>
        <time>2012-03-25T08:32:55Z</time>
      </trkpt>
      <trkpt lat="43.33626" lon="-0.50487">
        <ele>137.125244</ele>
        <time>2012-03-25T08:33:09Z</time>
      </trkpt>
      <trkpt lat="43.33639" lon="-0.50485">
        <ele>136.644653</ele>
        <time>2012-03-25T08:33:11Z</time>
      </trkpt>
      <trkpt lat="43.33663" lon="-0.50495">
        <ele>136.644653</ele>
        <time>2012-03-25T08:33:15Z</time>
      </trkpt>
      <trkpt lat="43.33685" lon="-0.50518">
        <ele>136.16394</ele>
        <time>2012-03-25T08:33:19Z</time>
      </trkpt>
      <trkpt lat="43.33708" lon="-0.5053">
        <ele>137.125244</ele>
        <time>2012-03-25T08:33:23Z</time>
      </trkpt>
      <trkpt lat="43.33766" lon="-0.50536">
        <ele>137.125244</ele>
        <time>2012-03-25T08:33:32Z</time>
      </trkpt>
      <trkpt lat="43.33797" lon="-0.50534">
        <ele>135.202515</ele>
        <time>2012-03-25T08:33:37Z</time>
      </trkpt>
      <trkpt lat="43.33828" lon="-0.50549">
        <ele>135.683105</ele>
        <time>2012-03-25T08:33:44Z</time>
      </trkpt>
      <trkpt lat="43.33833" lon="-0.5055">
        <ele>135.683105</ele>
        <time>2012-03-25T08:33:45Z</time>
      </trkpt>
      <trkpt lat="43.33852" lon="-0.50554">
        <ele>136.16394</ele>
        <time>2012-03-25T08:33:49Z</time>
      </trkpt>
      <trkpt lat="43.33936" lon="-0.50541">
        <ele>136.16394</ele>
        <time>2012-03-25T08:34:04Z</time>
      </trkpt>
      <trkpt lat="43.33941" lon="-0.5054">
        <ele>135.202515</ele>
        <time>2012-03-25T08:34:05Z</time>
      </trkpt>
      <trkpt lat="43.33953" lon="-0.50539">
        <ele>135.202515</ele>
        <time>2012-03-25T08:34:07Z</time>
      </trkpt>
      <trkpt lat="43.34038" lon="-0.50549">
        <ele>135.683105</ele>
        <time>2012-03-25T08:34:21Z</time>
      </trkpt>
      <trkpt lat="43.34147" lon="-0.50541">
        <ele>135.683105</ele>
        <time>2012-03-25T08:34:39Z</time>
      </trkpt>
      <trkpt lat="43.34281" lon="-0.50537">
        <ele>134.721924</ele>
        <time>2012-03-25T08:35:01Z</time>
      </trkpt>
      <trkpt lat="43.34328" lon="-0.50509">
        <ele>133.760498</ele>
        <time>2012-03-25T08:35:10Z</time>
      </trkpt>
      <trkpt lat="43.34335" lon="-0.50471">
        <ele>134.241211</ele>
        <time>2012-03-25T08:35:17Z</time>
      </trkpt>
      <trkpt lat="43.34331" lon="-0.50466">
        <ele>134.241211</ele>
        <time>2012-03-25T08:35:18Z</time>
      </trkpt>
      <trkpt lat="43.34324" lon="-0.50455">
        <ele>134.241211</ele>
        <time>2012-03-25T08:35:20Z</time>
      </trkpt>
      <trkpt lat="43.34262" lon="-0.50382">
        <ele>134.721924</ele>
        <time>2012-03-25T08:35:34Z</time>
      </trkpt>
      <trkpt lat="43.34256" lon="-0.50378">
        <ele>135.202515</ele>
        <time>2012-03-25T08:35:35Z</time>
      </trkpt>
      <trkpt lat="43.34192" lon="-0.50331">
        <ele>135.202515</ele>
        <time>2012-03-25T08:35:48Z</time>
      </trkpt>
      <trkpt lat="43.34166" lon="-0.50317">
        <ele>135.683105</ele>
        <time>2012-03-25T08:35:53Z</time>
      </trkpt>
      <trkpt lat="43.34148" lon="-0.50298">
        <ele>135.202515</ele>
        <time>2012-03-25T08:35:57Z</time>
      </trkpt>
      <trkpt lat="43.34083" lon="-0.50225">
        <ele>135.683105</ele>
        <time>2012-03-25T08:36:12Z</time>
      </trkpt>
      <trkpt lat="43.34028" lon="-0.50151">
        <ele>134.241211</ele>
        <time>2012-03-25T08:36:24Z</time>
      </trkpt>
      <trkpt lat="43.34012" lon="-0.50135">
        <ele>135.202515</ele>
        <time>2012-03-25T08:36:27Z</time>
      </trkpt>
      <trkpt lat="43.33978" lon="-0.50051">
        <ele>135.202515</ele>
        <time>2012-03-25T08:36:38Z</time>
      </trkpt>
      <trkpt lat="43.33959" lon="-0.49965">
        <ele>134.721924</ele>
        <time>2012-03-25T08:36:49Z</time>
      </trkpt>
      <trkpt lat="43.33928" lon="-0.49906">
        <ele>137.605835</ele>
        <time>2012-03-25T08:36:59Z</time>
      </trkpt>
      <trkpt lat="43.33911" lon="-0.49889">
        <ele>137.605835</ele>
        <time>2012-03-25T08:37:04Z</time>
      </trkpt>
      <trkpt lat="43.33904" lon="-0.4988">
        <ele>137.605835</ele>
        <time>2012-03-25T08:37:06Z</time>
      </trkpt>
      <trkpt lat="43.33885" lon="-0.49835">
        <ele>137.125244</ele>
        <time>2012-03-25T08:37:13Z</time>
      </trkpt>
      <trkpt lat="43.33873" lon="-0.49817">
        <ele>135.202515</ele>
        <time>2012-03-25T08:37:16Z</time>
      </trkpt>
      <trkpt lat="43.33856" lon="-0.49802">
        <ele>135.683105</ele>
        <time>2012-03-25T08:37:20Z</time>
      </trkpt>
      <trkpt lat="43.33847" lon="-0.49789">
        <ele>135.202515</ele>
        <time>2012-03-25T08:37:23Z</time>
      </trkpt>
      <trkpt lat="43.33843" lon="-0.49749">
        <ele>133.760498</ele>
        <time>2012-03-25T08:37:30Z</time>
      </trkpt>
      <trkpt lat="43.33851" lon="-0.49732">
        <ele>134.721924</ele>
        <time>2012-03-25T08:37:33Z</time>
      </trkpt>
      <trkpt lat="43.33847" lon="-0.49698">
        <ele>136.644653</ele>
        <time>2012-03-25T08:37:39Z</time>
      </trkpt>
      <trkpt lat="43.33835" lon="-0.49664">
        <ele>137.605835</ele>
        <time>2012-03-25T08:37:44Z</time>
      </trkpt>
      <trkpt lat="43.33825" lon="-0.49592">
        <ele>137.605835</ele>
        <time>2012-03-25T08:37:53Z</time>
      </trkpt>
      <trkpt lat="43.33792" lon="-0.49499">
        <ele>137.605835</ele>
        <time>2012-03-25T08:38:05Z</time>
      </trkpt>
      <trkpt lat="43.33777" lon="-0.49471">
        <ele>138.086548</ele>
        <time>2012-03-25T08:38:09Z</time>
      </trkpt>
      <trkpt lat="43.33757" lon="-0.49456">
        <ele>138.086548</ele>
        <time>2012-03-25T08:38:13Z</time>
      </trkpt>
      <trkpt lat="43.33717" lon="-0.49409">
        <ele>138.086548</ele>
        <time>2012-03-25T08:38:22Z</time>
      </trkpt>
      <trkpt lat="43.33704" lon="-0.49345">
        <ele>139.047852</ele>
        <time>2012-03-25T08:38:30Z</time>
      </trkpt>
      <trkpt lat="43.33665" lon="-0.49287">
        <ele>139.047852</ele>
        <time>2012-03-25T08:38:40Z</time>
      </trkpt>
      <trkpt lat="43.33648" lon="-0.4928">
        <ele>138.086548</ele>
        <time>2012-03-25T08:38:43Z</time>
      </trkpt>
      <trkpt lat="43.33628" lon="-0.49252">
        <ele>139.047852</ele>
        <time>2012-03-25T08:38:48Z</time>
      </trkpt>
      <trkpt lat="43.33621" lon="-0.49205">
        <ele>139.047852</ele>
        <time>2012-03-25T08:38:54Z</time>
      </trkpt>
      <trkpt lat="43.33577" lon="-0.49141">
        <ele>139.528442</ele>
        <time>2012-03-25T08:39:05Z</time>
      </trkpt>
      <trkpt lat="43.33543" lon="-0.49084">
        <ele>140.009155</ele>
        <time>2012-03-25T08:39:15Z</time>
      </trkpt>
      <trkpt lat="43.33532" lon="-0.49039">
        <ele>139.047852</ele>
        <time>2012-03-25T08:39:21Z</time>
      </trkpt>
      <trkpt lat="43.3352" lon="-0.48921">
        <ele>136.16394</ele>
        <time>2012-03-25T08:39:34Z</time>
      </trkpt>
      <trkpt lat="43.3349" lon="-0.48785">
        <ele>136.644653</ele>
        <time>2012-03-25T08:39:50Z</time>
      </trkpt>
      <trkpt lat="43.33469" lon="-0.48768">
        <ele>138.086548</ele>
        <time>2012-03-25T08:39:56Z</time>
      </trkpt>
      <trkpt lat="43.33463" lon="-0.48774">
        <ele>139.528442</ele>
        <time>2012-03-25T08:39:58Z</time>
      </trkpt>
      <trkpt lat="43.33457" lon="-0.48787">
        <ele>139.528442</ele>
        <time>2012-03-25T08:40:01Z</time>
      </trkpt>
      <trkpt lat="43.33437" lon="-0.48813">
        <ele>140.489868</ele>
        <time>2012-03-25T08:40:07Z</time>
      </trkpt>
      <trkpt lat="43.33386" lon="-0.48846">
        <ele>141.931763</ele>
        <time>2012-03-25T08:40:19Z</time>
      </trkpt>
      <trkpt lat="43.33352" lon="-0.48841">
        <ele>140.970459</ele>
        <time>2012-03-25T08:40:26Z</time>
      </trkpt>
      <trkpt lat="43.33312" lon="-0.48793">
        <ele>140.489868</ele>
        <time>2012-03-25T08:40:36Z</time>
      </trkpt>
      <trkpt lat="43.33301" lon="-0.48765">
        <ele>140.009155</ele>
        <time>2012-03-25T08:40:40Z</time>
      </trkpt>
      <trkpt lat="43.33289" lon="-0.48737">
        <ele>140.009155</ele>
        <time>2012-03-25T08:40:44Z</time>
      </trkpt>
      <trkpt lat="43.33206" lon="-0.48625">
        <ele>140.009155</ele>
        <time>2012-03-25T08:41:04Z</time>
      </trkpt>
      <trkpt lat="43.33188" lon="-0.48576">
        <ele>140.489868</ele>
        <time>2012-03-25T08:41:11Z</time>
      </trkpt>
      <trkpt lat="43.33189" lon="-0.48546">
        <ele>140.970459</ele>
        <time>2012-03-25T08:41:15Z</time>
      </trkpt>
      <trkpt lat="43.33196" lon="-0.48472">
        <ele>140.009155</ele>
        <time>2012-03-25T08:41:24Z</time>
      </trkpt>
      <trkpt lat="43.33184" lon="-0.48445">
        <ele>140.970459</ele>
        <time>2012-03-25T08:41:28Z</time>
      </trkpt>
      <trkpt lat="43.33169" lon="-0.48431">
        <ele>140.970459</ele>
        <time>2012-03-25T08:41:31Z</time>
      </trkpt>
      <trkpt lat="43.33128" lon="-0.48418">
        <ele>141.931763</ele>
        <time>2012-03-25T08:41:38Z</time>
      </trkpt>
      <trkpt lat="43.331" lon="-0.48379">
        <ele>141.931763</ele>
        <time>2012-03-25T08:41:45Z</time>
      </trkpt>
      <trkpt lat="43.33064" lon="-0.48301">
        <ele>141.931763</ele>
        <time>2012-03-25T08:41:56Z</time>
      </trkpt>
      <trkpt lat="43.33051" lon="-0.48264">
        <ele>142.893066</ele>
        <time>2012-03-25T08:42:01Z</time>
      </trkpt>
      <trkpt lat="43.33055" lon="-0.48221">
        <ele>141.931763</ele>
        <time>2012-03-25T08:42:07Z</time>
      </trkpt>
      <trkpt lat="43.33058" lon="-0.48206">
        <ele>141.931763</ele>
        <time>2012-03-25T08:42:09Z</time>
      </trkpt>
      <trkpt lat="43.33043" lon="-0.48096">
        <ele>142.412476</ele>
        <time>2012-03-25T08:42:23Z</time>
      </trkpt>
      <trkpt lat="43.3303" lon="-0.48066">
        <ele>142.412476</ele>
        <time>2012-03-25T08:42:27Z</time>
      </trkpt>
      <trkpt lat="43.3299" lon="-0.47954">
        <ele>142.412476</ele>
        <time>2012-03-25T08:42:41Z</time>
      </trkpt>
      <trkpt lat="43.32984" lon="-0.47937">
        <ele>142.893066</ele>
        <time>2012-03-25T08:42:43Z</time>
      </trkpt>
      <trkpt lat="43.32932" lon="-0.47822">
        <ele>143.373657</ele>
        <time>2012-03-25T08:42:58Z</time>
      </trkpt>
      <trkpt lat="43.32916" lon="-0.47772">
        <ele>143.373657</ele>
        <time>2012-03-25T08:43:04Z</time>
      </trkpt>
      <trkpt lat="43.32874" lon="-0.47676">
        <ele>142.893066</ele>
        <time>2012-03-25T08:43:16Z</time>
      </trkpt>
      <trkpt lat="43.32835" lon="-0.47569">
        <ele>142.893066</ele>
        <time>2012-03-25T08:43:30Z</time>
      </trkpt>
      <trkpt lat="43.32831" lon="-0.47555">
        <ele>142.412476</ele>
        <time>2012-03-25T08:43:32Z</time>
      </trkpt>
      <trkpt lat="43.32806" lon="-0.47542">
        <ele>141.931763</ele>
        <time>2012-03-25T08:43:39Z</time>
      </trkpt>
      <trkpt lat="43.328" lon="-0.47572">
        <ele>141.931763</ele>
        <time>2012-03-25T08:43:43Z</time>
      </trkpt>
      <trkpt lat="43.32794" lon="-0.47584">
        <ele>142.893066</ele>
        <time>2012-03-25T08:43:46Z</time>
      </trkpt>
      <trkpt lat="43.32783" lon="-0.47582">
        <ele>142.893066</ele>
        <time>2012-03-25T08:43:51Z</time>
      </trkpt>
      <trkpt lat="43.32733" lon="-0.47581">
        <ele>142.893066</ele>
        <time>2012-03-25T08:44:09Z</time>
      </trkpt>
      <trkpt lat="43.32727" lon="-0.47579">
        <ele>142.893066</ele>
        <time>2012-03-25T08:44:18Z</time>
      </trkpt>
      <trkpt lat="43.32723" lon="-0.47577">
        <ele>142.893066</ele>
        <time>2012-03-25T08:44:22Z</time>
      </trkpt>
      <trkpt lat="43.32706" lon="-0.47577">
        <ele>142.412476</ele>
        <time>2012-03-25T08:44:37Z</time>
      </trkpt>
      <trkpt lat="43.32703" lon="-0.4757">
        <ele>141.931763</ele>
        <time>2012-03-25T08:44:49Z</time>
      </trkpt>
      <trkpt lat="43.32704" lon="-0.47569">
        <ele>141.931763</ele>
        <time>2012-03-25T08:44:50Z</time>
      </trkpt>
      <trkpt lat="43.3271" lon="-0.47567">
        <ele>142.893066</ele>
        <time>2012-03-25T08:45:08Z</time>
      </trkpt>
    </trkseg>
  </trk>
</gpx>